<?xml version="1.0" encoding="UTF-8" standalone="no" ?>
<gpx xmlns="http://www.topografix.com/GPX/1/1" xmlns:xsi="http://www.w3.org/2001/XMLSchema-instance" xsi:schemaLocation="http://www.topografix.com/GPX/1/1 http://www.topografix.com/GPX/1/1/gpx.xsd" version="1.1" creator="VisuGPX - https://www.visugpx.com">
  <metadata>
    <name>Villeneuve Loubet - Tour du Chateau</name>
    <desc><![CDATA[Parcours de CAP du midi...]]></desc>
  </metadata>
  <trk>
    <name><![CDATA[Villeneuve Loubet - Tour du chateau]]></name>
    <desc><![CDATA[Pas la grosse forme, et le tour me semble difficile, surtout dans les montées.]]></desc>
    <trkseg>
      <trkpt lat="43.64377" lon="7.12469">
        <ele>77</ele>
        <time>2011-03-14T11:06:54.000Z</time>
      </trkpt>
      <trkpt lat="43.64367" lon="7.12475">
        <ele>75.599998474121</ele>
        <time>2011-03-14T11:06:59.000Z</time>
      </trkpt>
      <trkpt lat="43.64349" lon="7.12478">
        <ele>73.599998474121</ele>
        <time>2011-03-14T11:07:05.000Z</time>
      </trkpt>
      <trkpt lat="43.64333" lon="7.12481">
        <ele>71.599998474121</ele>
        <time>2011-03-14T11:07:10.000Z</time>
      </trkpt>
      <trkpt lat="43.64318" lon="7.12485">
        <ele>72.199996948242</ele>
        <time>2011-03-14T11:07:15.000Z</time>
      </trkpt>
      <trkpt lat="43.64302" lon="7.12493">
        <ele>71.199996948242</ele>
        <time>2011-03-14T11:07:20.000Z</time>
      </trkpt>
      <trkpt lat="43.64288" lon="7.12502">
        <ele>70.199996948242</ele>
        <time>2011-03-14T11:07:25.000Z</time>
      </trkpt>
      <trkpt lat="43.64274" lon="7.12508">
        <ele>69.199996948242</ele>
        <time>2011-03-14T11:07:30.000Z</time>
      </trkpt>
      <trkpt lat="43.64262" lon="7.12518">
        <ele>68.199996948242</ele>
        <time>2011-03-14T11:07:35.000Z</time>
      </trkpt>
      <trkpt lat="43.64252" lon="7.12527">
        <ele>68.199996948242</ele>
        <time>2011-03-14T11:07:39.000Z</time>
      </trkpt>
      <trkpt lat="43.64238" lon="7.12534">
        <ele>67.800003051758</ele>
        <time>2011-03-14T11:07:44.000Z</time>
      </trkpt>
      <trkpt lat="43.64225" lon="7.12546">
        <ele>67.800003051758</ele>
        <time>2011-03-14T11:07:49.000Z</time>
      </trkpt>
      <trkpt lat="43.64213" lon="7.1256">
        <ele>68.199996948242</ele>
        <time>2011-03-14T11:07:54.000Z</time>
      </trkpt>
      <trkpt lat="43.64203" lon="7.12576">
        <ele>68.199996948242</ele>
        <time>2011-03-14T11:07:59.000Z</time>
      </trkpt>
      <trkpt lat="43.64196" lon="7.12592">
        <ele>68.800003051758</ele>
        <time>2011-03-14T11:08:04.000Z</time>
      </trkpt>
      <trkpt lat="43.64189" lon="7.12612">
        <ele>69.199996948242</ele>
        <time>2011-03-14T11:08:09.000Z</time>
      </trkpt>
      <trkpt lat="43.64189" lon="7.12628">
        <ele>71.599998474121</ele>
        <time>2011-03-14T11:08:13.000Z</time>
      </trkpt>
      <trkpt lat="43.64195" lon="7.12647">
        <ele>73</ele>
        <time>2011-03-14T11:08:18.000Z</time>
      </trkpt>
      <trkpt lat="43.64205" lon="7.12662">
        <ele>72.599998474121</ele>
        <time>2011-03-14T11:08:23.000Z</time>
      </trkpt>
      <trkpt lat="43.64216" lon="7.1268">
        <ele>70.199996948242</ele>
        <time>2011-03-14T11:08:29.000Z</time>
      </trkpt>
      <trkpt lat="43.64215" lon="7.127">
        <ele>68.199996948242</ele>
        <time>2011-03-14T11:08:34.000Z</time>
      </trkpt>
      <trkpt lat="43.64213" lon="7.12722">
        <ele>67.400001525879</ele>
        <time>2011-03-14T11:08:39.000Z</time>
      </trkpt>
      <trkpt lat="43.64207" lon="7.12747">
        <ele>62.599998474121</ele>
        <time>2011-03-14T11:08:45.000Z</time>
      </trkpt>
      <trkpt lat="43.64199" lon="7.12771">
        <ele>59.599998474121</ele>
        <time>2011-03-14T11:08:51.000Z</time>
      </trkpt>
      <trkpt lat="43.64192" lon="7.12796">
        <ele>57.200000762939</ele>
        <time>2011-03-14T11:08:57.000Z</time>
      </trkpt>
      <trkpt lat="43.64187" lon="7.12817">
        <ele>55.799999237061</ele>
        <time>2011-03-14T11:09:02.000Z</time>
      </trkpt>
      <trkpt lat="43.64182" lon="7.12835">
        <ele>53.799999237061</ele>
        <time>2011-03-14T11:09:06.000Z</time>
      </trkpt>
      <trkpt lat="43.64175" lon="7.1286">
        <ele>52</ele>
        <time>2011-03-14T11:09:12.000Z</time>
      </trkpt>
      <trkpt lat="43.64169" lon="7.12886">
        <ele>48.599998474121</ele>
        <time>2011-03-14T11:09:18.000Z</time>
      </trkpt>
      <trkpt lat="43.64162" lon="7.12902">
        <ele>46.599998474121</ele>
        <time>2011-03-14T11:09:22.000Z</time>
      </trkpt>
      <trkpt lat="43.64155" lon="7.12924">
        <ele>43.200000762939</ele>
        <time>2011-03-14T11:09:28.000Z</time>
      </trkpt>
      <trkpt lat="43.64151" lon="7.12942">
        <ele>42.400001525879</ele>
        <time>2011-03-14T11:09:32.000Z</time>
      </trkpt>
      <trkpt lat="43.64146" lon="7.12962">
        <ele>40.799999237061</ele>
        <time>2011-03-14T11:09:37.000Z</time>
      </trkpt>
      <trkpt lat="43.6414" lon="7.12979">
        <ele>39.400001525879</ele>
        <time>2011-03-14T11:09:41.000Z</time>
      </trkpt>
      <trkpt lat="43.64136" lon="7.12999">
        <ele>38.400001525879</ele>
        <time>2011-03-14T11:09:46.000Z</time>
      </trkpt>
      <trkpt lat="43.64131" lon="7.1301">
        <ele>31.200000762939</ele>
        <time>2011-03-14T11:10:08.000Z</time>
      </trkpt>
      <trkpt lat="43.64131" lon="7.13011">
        <ele>30.799999237061</ele>
        <time>2011-03-14T11:10:09.000Z</time>
      </trkpt>
      <trkpt lat="43.64134" lon="7.13033">
        <ele>33.200000762939</ele>
        <time>2011-03-14T11:10:14.000Z</time>
      </trkpt>
      <trkpt lat="43.64142" lon="7.13052">
        <ele>35.200000762939</ele>
        <time>2011-03-14T11:10:20.000Z</time>
      </trkpt>
      <trkpt lat="43.64151" lon="7.13067">
        <ele>33.200000762939</ele>
        <time>2011-03-14T11:10:25.000Z</time>
      </trkpt>
      <trkpt lat="43.64164" lon="7.13083">
        <ele>31.799999237061</ele>
        <time>2011-03-14T11:10:30.000Z</time>
      </trkpt>
      <trkpt lat="43.64179" lon="7.13105">
        <ele>28.799999237061</ele>
        <time>2011-03-14T11:10:37.000Z</time>
      </trkpt>
      <trkpt lat="43.64191" lon="7.1312">
        <ele>26.39999961853</ele>
        <time>2011-03-14T11:10:42.000Z</time>
      </trkpt>
      <trkpt lat="43.642" lon="7.13131">
        <ele>23.60000038147</ele>
        <time>2011-03-14T11:10:46.000Z</time>
      </trkpt>
      <trkpt lat="43.64213" lon="7.1314">
        <ele>25</ele>
        <time>2011-03-14T11:10:50.000Z</time>
      </trkpt>
      <trkpt lat="43.64221" lon="7.13148">
        <ele>25.60000038147</ele>
        <time>2011-03-14T11:10:54.000Z</time>
      </trkpt>
      <trkpt lat="43.64228" lon="7.13156">
        <ele>25</ele>
        <time>2011-03-14T11:10:57.000Z</time>
      </trkpt>
      <trkpt lat="43.64241" lon="7.1316">
        <ele>12</ele>
        <time>2011-03-14T11:13:55.000Z</time>
      </trkpt>
      <trkpt lat="43.64241" lon="7.13159">
        <ele>12</ele>
        <time>2011-03-14T11:13:56.000Z</time>
      </trkpt>
      <trkpt lat="43.64241" lon="7.13156">
        <ele>11</ele>
        <time>2011-03-14T11:13:57.000Z</time>
      </trkpt>
      <trkpt lat="43.64249" lon="7.13136">
        <ele>13.39999961853</ele>
        <time>2011-03-14T11:14:02.000Z</time>
      </trkpt>
      <trkpt lat="43.64252" lon="7.13115">
        <ele>15.800000190735</ele>
        <time>2011-03-14T11:14:07.000Z</time>
      </trkpt>
      <trkpt lat="43.64256" lon="7.13081">
        <ele>20.200000762939</ele>
        <time>2011-03-14T11:14:15.000Z</time>
      </trkpt>
      <trkpt lat="43.64259" lon="7.1306">
        <ele>21.60000038147</ele>
        <time>2011-03-14T11:14:20.000Z</time>
      </trkpt>
      <trkpt lat="43.64263" lon="7.1304">
        <ele>22.60000038147</ele>
        <time>2011-03-14T11:14:25.000Z</time>
      </trkpt>
      <trkpt lat="43.64266" lon="7.13023">
        <ele>23.60000038147</ele>
        <time>2011-03-14T11:14:29.000Z</time>
      </trkpt>
      <trkpt lat="43.64269" lon="7.13003">
        <ele>25</ele>
        <time>2011-03-14T11:14:34.000Z</time>
      </trkpt>
      <trkpt lat="43.64275" lon="7.12984">
        <ele>27</ele>
        <time>2011-03-14T11:14:39.000Z</time>
      </trkpt>
      <trkpt lat="43.64286" lon="7.12961">
        <ele>28.39999961853</ele>
        <time>2011-03-14T11:14:46.000Z</time>
      </trkpt>
      <trkpt lat="43.64295" lon="7.12945">
        <ele>29.39999961853</ele>
        <time>2011-03-14T11:14:51.000Z</time>
      </trkpt>
      <trkpt lat="43.64304" lon="7.12925">
        <ele>32.200000762939</ele>
        <time>2011-03-14T11:14:57.000Z</time>
      </trkpt>
      <trkpt lat="43.64316" lon="7.12909">
        <ele>35.200000762939</ele>
        <time>2011-03-14T11:15:03.000Z</time>
      </trkpt>
      <trkpt lat="43.64326" lon="7.12899">
        <ele>35.599998474121</ele>
        <time>2011-03-14T11:15:07.000Z</time>
      </trkpt>
      <trkpt lat="43.64338" lon="7.1289">
        <ele>36</ele>
        <time>2011-03-14T11:15:12.000Z</time>
      </trkpt>
      <trkpt lat="43.64347" lon="7.12886">
        <ele>36.599998474121</ele>
        <time>2011-03-14T11:15:16.000Z</time>
      </trkpt>
      <trkpt lat="43.64363" lon="7.12885">
        <ele>37.599998474121</ele>
        <time>2011-03-14T11:15:22.000Z</time>
      </trkpt>
      <trkpt lat="43.64381" lon="7.12882">
        <ele>38.400001525879</ele>
        <time>2011-03-14T11:15:28.000Z</time>
      </trkpt>
      <trkpt lat="43.64394" lon="7.12868">
        <ele>39.400001525879</ele>
        <time>2011-03-14T11:15:34.000Z</time>
      </trkpt>
      <trkpt lat="43.644" lon="7.12854">
        <ele>40.400001525879</ele>
        <time>2011-03-14T11:15:38.000Z</time>
      </trkpt>
      <trkpt lat="43.64406" lon="7.12837">
        <ele>40.799999237061</ele>
        <time>2011-03-14T11:15:43.000Z</time>
      </trkpt>
      <trkpt lat="43.64412" lon="7.12825">
        <ele>40.799999237061</ele>
        <time>2011-03-14T11:15:47.000Z</time>
      </trkpt>
      <trkpt lat="43.64423" lon="7.12813">
        <ele>42.799999237061</ele>
        <time>2011-03-14T11:15:52.000Z</time>
      </trkpt>
      <trkpt lat="43.64436" lon="7.12807">
        <ele>44.799999237061</ele>
        <time>2011-03-14T11:15:57.000Z</time>
      </trkpt>
      <trkpt lat="43.64449" lon="7.12809">
        <ele>46.599998474121</ele>
        <time>2011-03-14T11:16:02.000Z</time>
      </trkpt>
      <trkpt lat="43.64461" lon="7.12819">
        <ele>45.599998474121</ele>
        <time>2011-03-14T11:16:07.000Z</time>
      </trkpt>
      <trkpt lat="43.64469" lon="7.12829">
        <ele>45.200000762939</ele>
        <time>2011-03-14T11:16:11.000Z</time>
      </trkpt>
      <trkpt lat="43.64482" lon="7.12842">
        <ele>44.799999237061</ele>
        <time>2011-03-14T11:16:17.000Z</time>
      </trkpt>
      <trkpt lat="43.64492" lon="7.12852">
        <ele>46.599998474121</ele>
        <time>2011-03-14T11:16:22.000Z</time>
      </trkpt>
      <trkpt lat="43.64504" lon="7.12857">
        <ele>47.599998474121</ele>
        <time>2011-03-14T11:16:27.000Z</time>
      </trkpt>
      <trkpt lat="43.64517" lon="7.12856">
        <ele>50</ele>
        <time>2011-03-14T11:16:33.000Z</time>
      </trkpt>
      <trkpt lat="43.64529" lon="7.12854">
        <ele>52</ele>
        <time>2011-03-14T11:16:38.000Z</time>
      </trkpt>
      <trkpt lat="43.64545" lon="7.12852">
        <ele>56.799999237061</ele>
        <time>2011-03-14T11:16:45.000Z</time>
      </trkpt>
      <trkpt lat="43.64563" lon="7.12846">
        <ele>65.800003051758</ele>
        <time>2011-03-14T11:16:52.000Z</time>
      </trkpt>
      <trkpt lat="43.6458" lon="7.12845">
        <ele>69.199996948242</ele>
        <time>2011-03-14T11:16:59.000Z</time>
      </trkpt>
      <trkpt lat="43.64591" lon="7.12842">
        <ele>71.599998474121</ele>
        <time>2011-03-14T11:17:04.000Z</time>
      </trkpt>
      <trkpt lat="43.64607" lon="7.12843">
        <ele>73</ele>
        <time>2011-03-14T11:17:10.000Z</time>
      </trkpt>
      <trkpt lat="43.64627" lon="7.12845">
        <ele>74</ele>
        <time>2011-03-14T11:17:17.000Z</time>
      </trkpt>
      <trkpt lat="43.64631" lon="7.1286">
        <ele>68.800003051758</ele>
        <time>2011-03-14T11:17:21.000Z</time>
      </trkpt>
      <trkpt lat="43.64627" lon="7.12887">
        <ele>65.800003051758</ele>
        <time>2011-03-14T11:17:28.000Z</time>
      </trkpt>
      <trkpt lat="43.64622" lon="7.12911">
        <ele>64</ele>
        <time>2011-03-14T11:17:35.000Z</time>
      </trkpt>
      <trkpt lat="43.64617" lon="7.12935">
        <ele>63</ele>
        <time>2011-03-14T11:17:41.000Z</time>
      </trkpt>
      <trkpt lat="43.64613" lon="7.12955">
        <ele>63</ele>
        <time>2011-03-14T11:17:46.000Z</time>
      </trkpt>
      <trkpt lat="43.6461" lon="7.1298">
        <ele>64.400001525879</ele>
        <time>2011-03-14T11:17:52.000Z</time>
      </trkpt>
      <trkpt lat="43.64608" lon="7.13011">
        <ele>64.400001525879</ele>
        <time>2011-03-14T11:17:59.000Z</time>
      </trkpt>
      <trkpt lat="43.64606" lon="7.13037">
        <ele>64.400001525879</ele>
        <time>2011-03-14T11:18:05.000Z</time>
      </trkpt>
      <trkpt lat="43.64603" lon="7.13058">
        <ele>64</ele>
        <time>2011-03-14T11:18:10.000Z</time>
      </trkpt>
      <trkpt lat="43.64604" lon="7.13084">
        <ele>62</ele>
        <time>2011-03-14T11:18:16.000Z</time>
      </trkpt>
      <trkpt lat="43.64609" lon="7.13096">
        <ele>60.599998474121</ele>
        <time>2011-03-14T11:18:20.000Z</time>
      </trkpt>
      <trkpt lat="43.64621" lon="7.13109">
        <ele>58.200000762939</ele>
        <time>2011-03-14T11:18:25.000Z</time>
      </trkpt>
      <trkpt lat="43.6463" lon="7.13117">
        <ele>57.799999237061</ele>
        <time>2011-03-14T11:18:29.000Z</time>
      </trkpt>
      <trkpt lat="43.64639" lon="7.13129">
        <ele>52.400001525879</ele>
        <time>2011-03-14T11:18:34.000Z</time>
      </trkpt>
      <trkpt lat="43.64652" lon="7.13145">
        <ele>46.599998474121</ele>
        <time>2011-03-14T11:18:40.000Z</time>
      </trkpt>
      <trkpt lat="43.64664" lon="7.13158">
        <ele>41.799999237061</ele>
        <time>2011-03-14T11:18:45.000Z</time>
      </trkpt>
      <trkpt lat="43.6468" lon="7.13174">
        <ele>38.400001525879</ele>
        <time>2011-03-14T11:18:51.000Z</time>
      </trkpt>
      <trkpt lat="43.64695" lon="7.13183">
        <ele>37.599998474121</ele>
        <time>2011-03-14T11:18:56.000Z</time>
      </trkpt>
      <trkpt lat="43.64707" lon="7.13194">
        <ele>36.599998474121</ele>
        <time>2011-03-14T11:19:01.000Z</time>
      </trkpt>
      <trkpt lat="43.64713" lon="7.13213">
        <ele>36</ele>
        <time>2011-03-14T11:19:06.000Z</time>
      </trkpt>
      <trkpt lat="43.64712" lon="7.13229">
        <ele>36</ele>
        <time>2011-03-14T11:19:10.000Z</time>
      </trkpt>
      <trkpt lat="43.64705" lon="7.13247">
        <ele>34.599998474121</ele>
        <time>2011-03-14T11:19:15.000Z</time>
      </trkpt>
      <trkpt lat="43.64706" lon="7.13257">
        <ele>35.200000762939</ele>
        <time>2011-03-14T11:19:18.000Z</time>
      </trkpt>
      <trkpt lat="43.64718" lon="7.1325">
        <ele>35.200000762939</ele>
        <time>2011-03-14T11:19:22.000Z</time>
      </trkpt>
      <trkpt lat="43.64723" lon="7.13245">
        <ele>36</ele>
        <time>2011-03-14T11:19:24.000Z</time>
      </trkpt>
      <trkpt lat="43.64742" lon="7.13235">
        <ele>32.200000762939</ele>
        <time>2011-03-14T11:19:30.000Z</time>
      </trkpt>
      <trkpt lat="43.64744" lon="7.13234">
        <ele>32.200000762939</ele>
        <time>2011-03-14T11:19:31.000Z</time>
      </trkpt>
      <trkpt lat="43.64756" lon="7.13234">
        <ele>29.799999237061</ele>
        <time>2011-03-14T11:19:36.000Z</time>
      </trkpt>
      <trkpt lat="43.64768" lon="7.1323">
        <ele>25</ele>
        <time>2011-03-14T11:19:42.000Z</time>
      </trkpt>
      <trkpt lat="43.64778" lon="7.13226">
        <ele>20.799999237061</ele>
        <time>2011-03-14T11:19:47.000Z</time>
      </trkpt>
      <trkpt lat="43.64795" lon="7.13224">
        <ele>12</ele>
        <time>2011-03-14T11:19:53.000Z</time>
      </trkpt>
      <trkpt lat="43.64805" lon="7.13222">
        <ele>7.1999998092651</ele>
        <time>2011-03-14T11:19:57.000Z</time>
      </trkpt>
      <trkpt lat="43.64809" lon="7.13218">
        <ele>5.4000000953674</ele>
        <time>2011-03-14T11:19:59.000Z</time>
      </trkpt>
      <trkpt lat="43.64816" lon="7.13207">
        <ele>0.60000002384186</ele>
        <time>2011-03-14T11:20:03.000Z</time>
      </trkpt>
      <trkpt lat="43.6483" lon="7.13189">
        <ele>-4.8000001907349</ele>
        <time>2011-03-14T11:20:09.000Z</time>
      </trkpt>
      <trkpt lat="43.6484" lon="7.13175">
        <ele>-3.4000000953674</ele>
        <time>2011-03-14T11:20:13.000Z</time>
      </trkpt>
      <trkpt lat="43.64836" lon="7.13157">
        <ele>-4.8000001907349</ele>
        <time>2011-03-14T11:20:18.000Z</time>
      </trkpt>
      <trkpt lat="43.64832" lon="7.13151">
        <ele>-3.7999999523163</ele>
        <time>2011-03-14T11:20:20.000Z</time>
      </trkpt>
      <trkpt lat="43.64818" lon="7.13131">
        <ele>2</ele>
        <time>2011-03-14T11:20:26.000Z</time>
      </trkpt>
      <trkpt lat="43.64811" lon="7.13113">
        <ele>5.4000000953674</ele>
        <time>2011-03-14T11:20:31.000Z</time>
      </trkpt>
      <trkpt lat="43.64806" lon="7.13088">
        <ele>7.8000001907349</ele>
        <time>2011-03-14T11:20:37.000Z</time>
      </trkpt>
      <trkpt lat="43.6481" lon="7.13064">
        <ele>8.6000003814697</ele>
        <time>2011-03-14T11:20:43.000Z</time>
      </trkpt>
      <trkpt lat="43.64814" lon="7.13042">
        <ele>9.1999998092651</ele>
        <time>2011-03-14T11:20:48.000Z</time>
      </trkpt>
      <trkpt lat="43.64819" lon="7.13017">
        <ele>9.1999998092651</ele>
        <time>2011-03-14T11:20:54.000Z</time>
      </trkpt>
      <trkpt lat="43.64824" lon="7.12991">
        <ele>8.6000003814697</ele>
        <time>2011-03-14T11:21:00.000Z</time>
      </trkpt>
      <trkpt lat="43.64828" lon="7.12965">
        <ele>7.8000001907349</ele>
        <time>2011-03-14T11:21:06.000Z</time>
      </trkpt>
      <trkpt lat="43.64829" lon="7.12938">
        <ele>6.8000001907349</ele>
        <time>2011-03-14T11:21:12.000Z</time>
      </trkpt>
      <trkpt lat="43.64832" lon="7.12911">
        <ele>8.6000003814697</ele>
        <time>2011-03-14T11:21:18.000Z</time>
      </trkpt>
      <trkpt lat="43.64836" lon="7.12875">
        <ele>12.60000038147</ele>
        <time>2011-03-14T11:21:26.000Z</time>
      </trkpt>
      <trkpt lat="43.6484" lon="7.1285">
        <ele>14</ele>
        <time>2011-03-14T11:21:32.000Z</time>
      </trkpt>
      <trkpt lat="43.64842" lon="7.12828">
        <ele>14.39999961853</ele>
        <time>2011-03-14T11:21:37.000Z</time>
      </trkpt>
      <trkpt lat="43.64844" lon="7.12812">
        <ele>13.39999961853</ele>
        <time>2011-03-14T11:21:41.000Z</time>
      </trkpt>
      <trkpt lat="43.64849" lon="7.12792">
        <ele>11</ele>
        <time>2011-03-14T11:21:46.000Z</time>
      </trkpt>
      <trkpt lat="43.64856" lon="7.12766">
        <ele>12</ele>
        <time>2011-03-14T11:21:52.000Z</time>
      </trkpt>
      <trkpt lat="43.64862" lon="7.12739">
        <ele>12.60000038147</ele>
        <time>2011-03-14T11:21:58.000Z</time>
      </trkpt>
      <trkpt lat="43.64869" lon="7.12724">
        <ele>13</ele>
        <time>2011-03-14T11:22:02.000Z</time>
      </trkpt>
      <trkpt lat="43.64881" lon="7.12715">
        <ele>13.39999961853</ele>
        <time>2011-03-14T11:22:06.000Z</time>
      </trkpt>
      <trkpt lat="43.64901" lon="7.12712">
        <ele>11.60000038147</ele>
        <time>2011-03-14T11:22:12.000Z</time>
      </trkpt>
      <trkpt lat="43.64924" lon="7.12715">
        <ele>11.60000038147</ele>
        <time>2011-03-14T11:22:19.000Z</time>
      </trkpt>
      <trkpt lat="43.64937" lon="7.12717">
        <ele>11</ele>
        <time>2011-03-14T11:22:23.000Z</time>
      </trkpt>
      <trkpt lat="43.64957" lon="7.12719">
        <ele>11.60000038147</ele>
        <time>2011-03-14T11:22:29.000Z</time>
      </trkpt>
      <trkpt lat="43.64972" lon="7.12723">
        <ele>11.60000038147</ele>
        <time>2011-03-14T11:22:34.000Z</time>
      </trkpt>
      <trkpt lat="43.64988" lon="7.12726">
        <ele>11.60000038147</ele>
        <time>2011-03-14T11:22:39.000Z</time>
      </trkpt>
      <trkpt lat="43.65011" lon="7.12728">
        <ele>13.39999961853</ele>
        <time>2011-03-14T11:22:46.000Z</time>
      </trkpt>
      <trkpt lat="43.6503" lon="7.1273">
        <ele>13.39999961853</ele>
        <time>2011-03-14T11:22:52.000Z</time>
      </trkpt>
      <trkpt lat="43.65046" lon="7.12734">
        <ele>13</ele>
        <time>2011-03-14T11:22:57.000Z</time>
      </trkpt>
      <trkpt lat="43.65062" lon="7.12741">
        <ele>12</ele>
        <time>2011-03-14T11:23:02.000Z</time>
      </trkpt>
      <trkpt lat="43.65077" lon="7.12752">
        <ele>12</ele>
        <time>2011-03-14T11:23:07.000Z</time>
      </trkpt>
      <trkpt lat="43.65092" lon="7.12762">
        <ele>12.60000038147</ele>
        <time>2011-03-14T11:23:12.000Z</time>
      </trkpt>
      <trkpt lat="43.65103" lon="7.12767">
        <ele>12.60000038147</ele>
        <time>2011-03-14T11:23:16.000Z</time>
      </trkpt>
      <trkpt lat="43.65119" lon="7.12766">
        <ele>14</ele>
        <time>2011-03-14T11:23:21.000Z</time>
      </trkpt>
      <trkpt lat="43.65135" lon="7.12765">
        <ele>14</ele>
        <time>2011-03-14T11:23:26.000Z</time>
      </trkpt>
      <trkpt lat="43.65145" lon="7.12765">
        <ele>15.39999961853</ele>
        <time>2011-03-14T11:23:29.000Z</time>
      </trkpt>
      <trkpt lat="43.65165" lon="7.12762">
        <ele>15.800000190735</ele>
        <time>2011-03-14T11:23:35.000Z</time>
      </trkpt>
      <trkpt lat="43.65183" lon="7.12759">
        <ele>16.39999961853</ele>
        <time>2011-03-14T11:23:41.000Z</time>
      </trkpt>
      <trkpt lat="43.65198" lon="7.12765">
        <ele>15</ele>
        <time>2011-03-14T11:23:46.000Z</time>
      </trkpt>
      <trkpt lat="43.65207" lon="7.12785">
        <ele>13</ele>
        <time>2011-03-14T11:23:51.000Z</time>
      </trkpt>
      <trkpt lat="43.65215" lon="7.12794">
        <ele>13</ele>
        <time>2011-03-14T11:23:54.000Z</time>
      </trkpt>
      <trkpt lat="43.6523" lon="7.12797">
        <ele>12.60000038147</ele>
        <time>2011-03-14T11:23:59.000Z</time>
      </trkpt>
      <trkpt lat="43.65249" lon="7.12794">
        <ele>14</ele>
        <time>2011-03-14T11:24:05.000Z</time>
      </trkpt>
      <trkpt lat="43.65261" lon="7.12782">
        <ele>15.800000190735</ele>
        <time>2011-03-14T11:24:10.000Z</time>
      </trkpt>
      <trkpt lat="43.65264" lon="7.12762">
        <ele>16.39999961853</ele>
        <time>2011-03-14T11:24:15.000Z</time>
      </trkpt>
      <trkpt lat="43.65267" lon="7.12743">
        <ele>16.799999237061</ele>
        <time>2011-03-14T11:24:19.000Z</time>
      </trkpt>
      <trkpt lat="43.65277" lon="7.12722">
        <ele>17.39999961853</ele>
        <time>2011-03-14T11:24:25.000Z</time>
      </trkpt>
      <trkpt lat="43.65288" lon="7.12706">
        <ele>17.39999961853</ele>
        <time>2011-03-14T11:24:30.000Z</time>
      </trkpt>
      <trkpt lat="43.65301" lon="7.12689">
        <ele>16.39999961853</ele>
        <time>2011-03-14T11:24:35.000Z</time>
      </trkpt>
      <trkpt lat="43.65311" lon="7.12677">
        <ele>16.39999961853</ele>
        <time>2011-03-14T11:24:39.000Z</time>
      </trkpt>
      <trkpt lat="43.65326" lon="7.1266">
        <ele>15.800000190735</ele>
        <time>2011-03-14T11:24:45.000Z</time>
      </trkpt>
      <trkpt lat="43.65339" lon="7.12647">
        <ele>15.39999961853</ele>
        <time>2011-03-14T11:24:50.000Z</time>
      </trkpt>
      <trkpt lat="43.65342" lon="7.1264">
        <ele>15</ele>
        <time>2011-03-14T11:24:52.000Z</time>
      </trkpt>
      <trkpt lat="43.65346" lon="7.12626">
        <ele>14.39999961853</ele>
        <time>2011-03-14T11:24:56.000Z</time>
      </trkpt>
      <trkpt lat="43.65358" lon="7.12617">
        <ele>15.39999961853</ele>
        <time>2011-03-14T11:25:00.000Z</time>
      </trkpt>
      <trkpt lat="43.65374" lon="7.12603">
        <ele>15</ele>
        <time>2011-03-14T11:25:06.000Z</time>
      </trkpt>
      <trkpt lat="43.65391" lon="7.1259">
        <ele>14.39999961853</ele>
        <time>2011-03-14T11:25:12.000Z</time>
      </trkpt>
      <trkpt lat="43.65402" lon="7.1258">
        <ele>15.39999961853</ele>
        <time>2011-03-14T11:25:16.000Z</time>
      </trkpt>
      <trkpt lat="43.65418" lon="7.12564">
        <ele>16.39999961853</ele>
        <time>2011-03-14T11:25:22.000Z</time>
      </trkpt>
      <trkpt lat="43.65429" lon="7.12554">
        <ele>16.799999237061</ele>
        <time>2011-03-14T11:25:26.000Z</time>
      </trkpt>
      <trkpt lat="43.65447" lon="7.12537">
        <ele>18.39999961853</ele>
        <time>2011-03-14T11:25:33.000Z</time>
      </trkpt>
      <trkpt lat="43.65462" lon="7.12521">
        <ele>18.799999237061</ele>
        <time>2011-03-14T11:25:39.000Z</time>
      </trkpt>
      <trkpt lat="43.65477" lon="7.12505">
        <ele>18.799999237061</ele>
        <time>2011-03-14T11:25:45.000Z</time>
      </trkpt>
      <trkpt lat="43.65492" lon="7.12487">
        <ele>17.799999237061</ele>
        <time>2011-03-14T11:25:51.000Z</time>
      </trkpt>
      <trkpt lat="43.65507" lon="7.12472">
        <ele>15.800000190735</ele>
        <time>2011-03-14T11:25:57.000Z</time>
      </trkpt>
      <trkpt lat="43.6552" lon="7.12457">
        <ele>15</ele>
        <time>2011-03-14T11:26:02.000Z</time>
      </trkpt>
      <trkpt lat="43.65537" lon="7.12437">
        <ele>16.39999961853</ele>
        <time>2011-03-14T11:26:09.000Z</time>
      </trkpt>
      <trkpt lat="43.65548" lon="7.12422">
        <ele>17.39999961853</ele>
        <time>2011-03-14T11:26:14.000Z</time>
      </trkpt>
      <trkpt lat="43.6556" lon="7.12405">
        <ele>19.200000762939</ele>
        <time>2011-03-14T11:26:19.000Z</time>
      </trkpt>
      <trkpt lat="43.65571" lon="7.12388">
        <ele>19.200000762939</ele>
        <time>2011-03-14T11:26:24.000Z</time>
      </trkpt>
      <trkpt lat="43.65581" lon="7.12372">
        <ele>17.799999237061</ele>
        <time>2011-03-14T11:26:29.000Z</time>
      </trkpt>
      <trkpt lat="43.65586" lon="7.12349">
        <ele>16.39999961853</ele>
        <time>2011-03-14T11:26:34.000Z</time>
      </trkpt>
      <trkpt lat="43.65591" lon="7.12328">
        <ele>13.39999961853</ele>
        <time>2011-03-14T11:26:39.000Z</time>
      </trkpt>
      <trkpt lat="43.65596" lon="7.12308">
        <ele>11.60000038147</ele>
        <time>2011-03-14T11:26:44.000Z</time>
      </trkpt>
      <trkpt lat="43.656" lon="7.12288">
        <ele>8.6000003814697</ele>
        <time>2011-03-14T11:26:49.000Z</time>
      </trkpt>
      <trkpt lat="43.65604" lon="7.12266">
        <ele>6.1999998092651</ele>
        <time>2011-03-14T11:26:54.000Z</time>
      </trkpt>
      <trkpt lat="43.65611" lon="7.1224">
        <ele>7.1999998092651</ele>
        <time>2011-03-14T11:27:00.000Z</time>
      </trkpt>
      <trkpt lat="43.65615" lon="7.12216">
        <ele>8.6000003814697</ele>
        <time>2011-03-14T11:27:05.000Z</time>
      </trkpt>
      <trkpt lat="43.6562" lon="7.12193">
        <ele>11</ele>
        <time>2011-03-14T11:27:10.000Z</time>
      </trkpt>
      <trkpt lat="43.65624" lon="7.12177">
        <ele>11.60000038147</ele>
        <time>2011-03-14T11:27:14.000Z</time>
      </trkpt>
      <trkpt lat="43.65631" lon="7.12152">
        <ele>12</ele>
        <time>2011-03-14T11:27:20.000Z</time>
      </trkpt>
      <trkpt lat="43.6564" lon="7.12129">
        <ele>12.60000038147</ele>
        <time>2011-03-14T11:27:26.000Z</time>
      </trkpt>
      <trkpt lat="43.6565" lon="7.12107">
        <ele>12.60000038147</ele>
        <time>2011-03-14T11:27:32.000Z</time>
      </trkpt>
      <trkpt lat="43.65659" lon="7.1209">
        <ele>11</ele>
        <time>2011-03-14T11:27:37.000Z</time>
      </trkpt>
      <trkpt lat="43.6567" lon="7.12074">
        <ele>10.199999809265</ele>
        <time>2011-03-14T11:27:42.000Z</time>
      </trkpt>
      <trkpt lat="43.65673" lon="7.12071">
        <ele>10.60000038147</ele>
        <time>2011-03-14T11:27:43.000Z</time>
      </trkpt>
      <trkpt lat="43.65689" lon="7.12071">
        <ele>9.1999998092651</ele>
        <time>2011-03-14T11:27:48.000Z</time>
      </trkpt>
      <trkpt lat="43.65692" lon="7.1207">
        <ele>11</ele>
        <time>2011-03-14T11:27:49.000Z</time>
      </trkpt>
      <trkpt lat="43.65704" lon="7.12057">
        <ele>11</ele>
        <time>2011-03-14T11:27:54.000Z</time>
      </trkpt>
      <trkpt lat="43.65712" lon="7.12042">
        <ele>10.199999809265</ele>
        <time>2011-03-14T11:27:58.000Z</time>
      </trkpt>
      <trkpt lat="43.65722" lon="7.12033">
        <ele>9.6000003814697</ele>
        <time>2011-03-14T11:28:02.000Z</time>
      </trkpt>
      <trkpt lat="43.65738" lon="7.1203">
        <ele>10.60000038147</ele>
        <time>2011-03-14T11:28:07.000Z</time>
      </trkpt>
      <trkpt lat="43.65757" lon="7.12033">
        <ele>9.6000003814697</ele>
        <time>2011-03-14T11:28:13.000Z</time>
      </trkpt>
      <trkpt lat="43.6577" lon="7.12032">
        <ele>10.60000038147</ele>
        <time>2011-03-14T11:28:17.000Z</time>
      </trkpt>
      <trkpt lat="43.65773" lon="7.12032">
        <ele>11.60000038147</ele>
        <time>2011-03-14T11:28:18.000Z</time>
      </trkpt>
      <trkpt lat="43.65794" lon="7.12019">
        <ele>15.39999961853</ele>
        <time>2011-03-14T11:28:25.000Z</time>
      </trkpt>
      <trkpt lat="43.65811" lon="7.12007">
        <ele>16.799999237061</ele>
        <time>2011-03-14T11:28:31.000Z</time>
      </trkpt>
      <trkpt lat="43.65826" lon="7.11998">
        <ele>15.800000190735</ele>
        <time>2011-03-14T11:28:36.000Z</time>
      </trkpt>
      <trkpt lat="43.6584" lon="7.11984">
        <ele>14.39999961853</ele>
        <time>2011-03-14T11:28:41.000Z</time>
      </trkpt>
      <trkpt lat="43.65852" lon="7.11984">
        <ele>15.39999961853</ele>
        <time>2011-03-14T11:28:45.000Z</time>
      </trkpt>
      <trkpt lat="43.65862" lon="7.12">
        <ele>16.799999237061</ele>
        <time>2011-03-14T11:28:50.000Z</time>
      </trkpt>
      <trkpt lat="43.65869" lon="7.12019">
        <ele>18.39999961853</ele>
        <time>2011-03-14T11:28:55.000Z</time>
      </trkpt>
      <trkpt lat="43.65871" lon="7.12041">
        <ele>14</ele>
        <time>2011-03-14T11:29:00.000Z</time>
      </trkpt>
      <trkpt lat="43.65872" lon="7.12064">
        <ele>11</ele>
        <time>2011-03-14T11:29:05.000Z</time>
      </trkpt>
      <trkpt lat="43.65871" lon="7.12077">
        <ele>10.60000038147</ele>
        <time>2011-03-14T11:29:08.000Z</time>
      </trkpt>
      <trkpt lat="43.65876" lon="7.12094">
        <ele>13</ele>
        <time>2011-03-14T11:29:13.000Z</time>
      </trkpt>
      <trkpt lat="43.65877" lon="7.12097">
        <ele>13.39999961853</ele>
        <time>2011-03-14T11:29:14.000Z</time>
      </trkpt>
      <trkpt lat="43.65886" lon="7.12095">
        <ele>16.799999237061</ele>
        <time>2011-03-14T11:29:20.000Z</time>
      </trkpt>
      <trkpt lat="43.6589" lon="7.12086">
        <ele>19.200000762939</ele>
        <time>2011-03-14T11:29:24.000Z</time>
      </trkpt>
      <trkpt lat="43.65899" lon="7.12077">
        <ele>18.799999237061</ele>
        <time>2011-03-14T11:29:27.000Z</time>
      </trkpt>
      <trkpt lat="43.65913" lon="7.12059">
        <ele>15.800000190735</ele>
        <time>2011-03-14T11:29:32.000Z</time>
      </trkpt>
      <trkpt lat="43.65924" lon="7.12044">
        <ele>15.800000190735</ele>
        <time>2011-03-14T11:29:37.000Z</time>
      </trkpt>
      <trkpt lat="43.65937" lon="7.1202">
        <ele>15.39999961853</ele>
        <time>2011-03-14T11:29:43.000Z</time>
      </trkpt>
      <trkpt lat="43.65947" lon="7.12003">
        <ele>14.39999961853</ele>
        <time>2011-03-14T11:29:48.000Z</time>
      </trkpt>
      <trkpt lat="43.65959" lon="7.11994">
        <ele>14.39999961853</ele>
        <time>2011-03-14T11:29:52.000Z</time>
      </trkpt>
      <trkpt lat="43.65979" lon="7.11985">
        <ele>17.39999961853</ele>
        <time>2011-03-14T11:29:58.000Z</time>
      </trkpt>
      <trkpt lat="43.65995" lon="7.11983">
        <ele>16.799999237061</ele>
        <time>2011-03-14T11:30:03.000Z</time>
      </trkpt>
      <trkpt lat="43.66011" lon="7.1198">
        <ele>17.39999961853</ele>
        <time>2011-03-14T11:30:08.000Z</time>
      </trkpt>
      <trkpt lat="43.66028" lon="7.11978">
        <ele>18.39999961853</ele>
        <time>2011-03-14T11:30:13.000Z</time>
      </trkpt>
      <trkpt lat="43.66048" lon="7.11977">
        <ele>18.39999961853</ele>
        <time>2011-03-14T11:30:19.000Z</time>
      </trkpt>
      <trkpt lat="43.66068" lon="7.11977">
        <ele>17.39999961853</ele>
        <time>2011-03-14T11:30:25.000Z</time>
      </trkpt>
      <trkpt lat="43.66081" lon="7.11977">
        <ele>18.39999961853</ele>
        <time>2011-03-14T11:30:29.000Z</time>
      </trkpt>
      <trkpt lat="43.66097" lon="7.11981">
        <ele>17.799999237061</ele>
        <time>2011-03-14T11:30:34.000Z</time>
      </trkpt>
      <trkpt lat="43.66113" lon="7.11987">
        <ele>15</ele>
        <time>2011-03-14T11:30:40.000Z</time>
      </trkpt>
      <trkpt lat="43.66128" lon="7.11993">
        <ele>12</ele>
        <time>2011-03-14T11:30:45.000Z</time>
      </trkpt>
      <trkpt lat="43.66143" lon="7.11998">
        <ele>12.60000038147</ele>
        <time>2011-03-14T11:30:50.000Z</time>
      </trkpt>
      <trkpt lat="43.66159" lon="7.11997">
        <ele>14</ele>
        <time>2011-03-14T11:30:55.000Z</time>
      </trkpt>
      <trkpt lat="43.66172" lon="7.11994">
        <ele>15.800000190735</ele>
        <time>2011-03-14T11:30:59.000Z</time>
      </trkpt>
      <trkpt lat="43.66188" lon="7.11986">
        <ele>17.39999961853</ele>
        <time>2011-03-14T11:31:04.000Z</time>
      </trkpt>
      <trkpt lat="43.662" lon="7.11977">
        <ele>16.39999961853</ele>
        <time>2011-03-14T11:31:08.000Z</time>
      </trkpt>
      <trkpt lat="43.66215" lon="7.11969">
        <ele>16.799999237061</ele>
        <time>2011-03-14T11:31:13.000Z</time>
      </trkpt>
      <trkpt lat="43.66232" lon="7.11969">
        <ele>17.39999961853</ele>
        <time>2011-03-14T11:31:18.000Z</time>
      </trkpt>
      <trkpt lat="43.66247" lon="7.11963">
        <ele>18.39999961853</ele>
        <time>2011-03-14T11:31:23.000Z</time>
      </trkpt>
      <trkpt lat="43.66263" lon="7.1196">
        <ele>18.39999961853</ele>
        <time>2011-03-14T11:31:28.000Z</time>
      </trkpt>
      <trkpt lat="43.66281" lon="7.11951">
        <ele>18.799999237061</ele>
        <time>2011-03-14T11:31:34.000Z</time>
      </trkpt>
      <trkpt lat="43.66303" lon="7.11942">
        <ele>18.39999961853</ele>
        <time>2011-03-14T11:31:41.000Z</time>
      </trkpt>
      <trkpt lat="43.66316" lon="7.1194">
        <ele>19.200000762939</ele>
        <time>2011-03-14T11:31:45.000Z</time>
      </trkpt>
      <trkpt lat="43.66327" lon="7.11957">
        <ele>19.799999237061</ele>
        <time>2011-03-14T11:31:50.000Z</time>
      </trkpt>
      <trkpt lat="43.6633" lon="7.11961">
        <ele>19.200000762939</ele>
        <time>2011-03-14T11:31:51.000Z</time>
      </trkpt>
      <trkpt lat="43.66339" lon="7.1198">
        <ele>18.39999961853</ele>
        <time>2011-03-14T11:31:56.000Z</time>
      </trkpt>
      <trkpt lat="43.66348" lon="7.11994">
        <ele>19.200000762939</ele>
        <time>2011-03-14T11:32:00.000Z</time>
      </trkpt>
      <trkpt lat="43.66358" lon="7.12011">
        <ele>19.200000762939</ele>
        <time>2011-03-14T11:32:05.000Z</time>
      </trkpt>
      <trkpt lat="43.6637" lon="7.12026">
        <ele>19.200000762939</ele>
        <time>2011-03-14T11:32:10.000Z</time>
      </trkpt>
      <trkpt lat="43.66379" lon="7.12042">
        <ele>19.200000762939</ele>
        <time>2011-03-14T11:32:15.000Z</time>
      </trkpt>
      <trkpt lat="43.66384" lon="7.1206">
        <ele>17.799999237061</ele>
        <time>2011-03-14T11:32:19.000Z</time>
      </trkpt>
      <trkpt lat="43.66383" lon="7.12087">
        <ele>17.39999961853</ele>
        <time>2011-03-14T11:32:25.000Z</time>
      </trkpt>
      <trkpt lat="43.66383" lon="7.12104">
        <ele>18.39999961853</ele>
        <time>2011-03-14T11:32:29.000Z</time>
      </trkpt>
      <trkpt lat="43.66382" lon="7.12128">
        <ele>17.799999237061</ele>
        <time>2011-03-14T11:32:35.000Z</time>
      </trkpt>
      <trkpt lat="43.66382" lon="7.1215">
        <ele>18.799999237061</ele>
        <time>2011-03-14T11:32:40.000Z</time>
      </trkpt>
      <trkpt lat="43.6638" lon="7.12174">
        <ele>19.799999237061</ele>
        <time>2011-03-14T11:32:46.000Z</time>
      </trkpt>
      <trkpt lat="43.66379" lon="7.12194">
        <ele>20.799999237061</ele>
        <time>2011-03-14T11:32:51.000Z</time>
      </trkpt>
      <trkpt lat="43.66378" lon="7.12215">
        <ele>20.200000762939</ele>
        <time>2011-03-14T11:32:56.000Z</time>
      </trkpt>
      <trkpt lat="43.66373" lon="7.12239">
        <ele>22.200000762939</ele>
        <time>2011-03-14T11:33:02.000Z</time>
      </trkpt>
      <trkpt lat="43.66368" lon="7.12264">
        <ele>25</ele>
        <time>2011-03-14T11:33:08.000Z</time>
      </trkpt>
      <trkpt lat="43.66366" lon="7.12279">
        <ele>26</ele>
        <time>2011-03-14T11:33:12.000Z</time>
      </trkpt>
      <trkpt lat="43.66364" lon="7.12295">
        <ele>27.39999961853</ele>
        <time>2011-03-14T11:33:16.000Z</time>
      </trkpt>
      <trkpt lat="43.66357" lon="7.12317">
        <ele>28</ele>
        <time>2011-03-14T11:33:22.000Z</time>
      </trkpt>
      <trkpt lat="43.66354" lon="7.12332">
        <ele>27.39999961853</ele>
        <time>2011-03-14T11:33:26.000Z</time>
      </trkpt>
      <trkpt lat="43.66353" lon="7.12339">
        <ele>28</ele>
        <time>2011-03-14T11:33:28.000Z</time>
      </trkpt>
      <trkpt lat="43.66345" lon="7.1236">
        <ele>28.39999961853</ele>
        <time>2011-03-14T11:33:34.000Z</time>
      </trkpt>
      <trkpt lat="43.66341" lon="7.12368">
        <ele>28.39999961853</ele>
        <time>2011-03-14T11:33:37.000Z</time>
      </trkpt>
      <trkpt lat="43.66335" lon="7.12387">
        <ele>29.39999961853</ele>
        <time>2011-03-14T11:33:43.000Z</time>
      </trkpt>
      <trkpt lat="43.66334" lon="7.12404">
        <ele>32.200000762939</ele>
        <time>2011-03-14T11:33:47.000Z</time>
      </trkpt>
      <trkpt lat="43.66327" lon="7.12423">
        <ele>35.599998474121</ele>
        <time>2011-03-14T11:33:52.000Z</time>
      </trkpt>
      <trkpt lat="43.66331" lon="7.12446">
        <ele>38</ele>
        <time>2011-03-14T11:33:58.000Z</time>
      </trkpt>
      <trkpt lat="43.66329" lon="7.12466">
        <ele>42.400001525879</ele>
        <time>2011-03-14T11:34:03.000Z</time>
      </trkpt>
      <trkpt lat="43.66329" lon="7.12486">
        <ele>45.599998474121</ele>
        <time>2011-03-14T11:34:08.000Z</time>
      </trkpt>
      <trkpt lat="43.66326" lon="7.12506">
        <ele>48.599998474121</ele>
        <time>2011-03-14T11:34:13.000Z</time>
      </trkpt>
      <trkpt lat="43.66323" lon="7.12523">
        <ele>50</ele>
        <time>2011-03-14T11:34:17.000Z</time>
      </trkpt>
      <trkpt lat="43.66312" lon="7.12537">
        <ele>50</ele>
        <time>2011-03-14T11:34:22.000Z</time>
      </trkpt>
      <trkpt lat="43.66301" lon="7.12549">
        <ele>45.200000762939</ele>
        <time>2011-03-14T11:34:26.000Z</time>
      </trkpt>
      <trkpt lat="43.6629" lon="7.12565">
        <ele>42.799999237061</ele>
        <time>2011-03-14T11:34:31.000Z</time>
      </trkpt>
      <trkpt lat="43.66281" lon="7.12577">
        <ele>40.799999237061</ele>
        <time>2011-03-14T11:34:35.000Z</time>
      </trkpt>
      <trkpt lat="43.66268" lon="7.12591">
        <ele>39</ele>
        <time>2011-03-14T11:34:40.000Z</time>
      </trkpt>
      <trkpt lat="43.6625" lon="7.12607">
        <ele>37</ele>
        <time>2011-03-14T11:34:46.000Z</time>
      </trkpt>
      <trkpt lat="43.66235" lon="7.12623">
        <ele>38.400001525879</ele>
        <time>2011-03-14T11:34:52.000Z</time>
      </trkpt>
      <trkpt lat="43.66223" lon="7.12636">
        <ele>40</ele>
        <time>2011-03-14T11:34:57.000Z</time>
      </trkpt>
      <trkpt lat="43.66215" lon="7.1265">
        <ele>41.799999237061</ele>
        <time>2011-03-14T11:35:01.000Z</time>
      </trkpt>
      <trkpt lat="43.66207" lon="7.12668">
        <ele>44.799999237061</ele>
        <time>2011-03-14T11:35:06.000Z</time>
      </trkpt>
      <trkpt lat="43.66193" lon="7.12685">
        <ele>46.200000762939</ele>
        <time>2011-03-14T11:35:12.000Z</time>
      </trkpt>
      <trkpt lat="43.66182" lon="7.12697">
        <ele>46.200000762939</ele>
        <time>2011-03-14T11:35:17.000Z</time>
      </trkpt>
      <trkpt lat="43.66171" lon="7.12718">
        <ele>49</ele>
        <time>2011-03-14T11:35:23.000Z</time>
      </trkpt>
      <trkpt lat="43.6617" lon="7.12721">
        <ele>49.599998474121</ele>
        <time>2011-03-14T11:35:24.000Z</time>
      </trkpt>
      <trkpt lat="43.66152" lon="7.12741">
        <ele>47.200000762939</ele>
        <time>2011-03-14T11:35:32.000Z</time>
      </trkpt>
      <trkpt lat="43.66143" lon="7.12753">
        <ele>45.599998474121</ele>
        <time>2011-03-14T11:35:36.000Z</time>
      </trkpt>
      <trkpt lat="43.66125" lon="7.12774">
        <ele>42.799999237061</ele>
        <time>2011-03-14T11:35:43.000Z</time>
      </trkpt>
      <trkpt lat="43.66111" lon="7.12787">
        <ele>40.799999237061</ele>
        <time>2011-03-14T11:35:48.000Z</time>
      </trkpt>
      <trkpt lat="43.66093" lon="7.12805">
        <ele>41.400001525879</ele>
        <time>2011-03-14T11:35:54.000Z</time>
      </trkpt>
      <trkpt lat="43.66078" lon="7.12823">
        <ele>43.200000762939</ele>
        <time>2011-03-14T11:36:00.000Z</time>
      </trkpt>
      <trkpt lat="43.66065" lon="7.12839">
        <ele>45.599998474121</ele>
        <time>2011-03-14T11:36:05.000Z</time>
      </trkpt>
      <trkpt lat="43.66054" lon="7.12849">
        <ele>46.200000762939</ele>
        <time>2011-03-14T11:36:09.000Z</time>
      </trkpt>
      <trkpt lat="43.6604" lon="7.12859">
        <ele>45.200000762939</ele>
        <time>2011-03-14T11:36:14.000Z</time>
      </trkpt>
      <trkpt lat="43.66028" lon="7.12868">
        <ele>44.799999237061</ele>
        <time>2011-03-14T11:36:18.000Z</time>
      </trkpt>
      <trkpt lat="43.66014" lon="7.12875">
        <ele>43.799999237061</ele>
        <time>2011-03-14T11:36:22.000Z</time>
      </trkpt>
      <trkpt lat="43.66002" lon="7.12885">
        <ele>43.799999237061</ele>
        <time>2011-03-14T11:36:26.000Z</time>
      </trkpt>
      <trkpt lat="43.65995" lon="7.12898">
        <ele>43.799999237061</ele>
        <time>2011-03-14T11:36:30.000Z</time>
      </trkpt>
      <trkpt lat="43.65993" lon="7.12917">
        <ele>42.400001525879</ele>
        <time>2011-03-14T11:36:35.000Z</time>
      </trkpt>
      <trkpt lat="43.65985" lon="7.12933">
        <ele>43.799999237061</ele>
        <time>2011-03-14T11:36:40.000Z</time>
      </trkpt>
      <trkpt lat="43.65978" lon="7.12946">
        <ele>44.799999237061</ele>
        <time>2011-03-14T11:36:44.000Z</time>
      </trkpt>
      <trkpt lat="43.65968" lon="7.12962">
        <ele>46.200000762939</ele>
        <time>2011-03-14T11:36:49.000Z</time>
      </trkpt>
      <trkpt lat="43.65961" lon="7.12975">
        <ele>46.599998474121</ele>
        <time>2011-03-14T11:36:53.000Z</time>
      </trkpt>
      <trkpt lat="43.65953" lon="7.12988">
        <ele>47.200000762939</ele>
        <time>2011-03-14T11:36:57.000Z</time>
      </trkpt>
      <trkpt lat="43.65946" lon="7.13005">
        <ele>50.599998474121</ele>
        <time>2011-03-14T11:37:02.000Z</time>
      </trkpt>
      <trkpt lat="43.65938" lon="7.13016">
        <ele>51</ele>
        <time>2011-03-14T11:37:06.000Z</time>
      </trkpt>
      <trkpt lat="43.65928" lon="7.13031">
        <ele>52</ele>
        <time>2011-03-14T11:37:11.000Z</time>
      </trkpt>
      <trkpt lat="43.65915" lon="7.13045">
        <ele>53.799999237061</ele>
        <time>2011-03-14T11:37:16.000Z</time>
      </trkpt>
      <trkpt lat="43.65897" lon="7.13059">
        <ele>55.400001525879</ele>
        <time>2011-03-14T11:37:22.000Z</time>
      </trkpt>
      <trkpt lat="43.65886" lon="7.13072">
        <ele>54.400001525879</ele>
        <time>2011-03-14T11:37:27.000Z</time>
      </trkpt>
      <trkpt lat="43.65875" lon="7.13088">
        <ele>55.400001525879</ele>
        <time>2011-03-14T11:37:33.000Z</time>
      </trkpt>
      <trkpt lat="43.65863" lon="7.13104">
        <ele>55.799999237061</ele>
        <time>2011-03-14T11:37:39.000Z</time>
      </trkpt>
      <trkpt lat="43.65853" lon="7.13117">
        <ele>55.799999237061</ele>
        <time>2011-03-14T11:37:44.000Z</time>
      </trkpt>
      <trkpt lat="43.65845" lon="7.13129">
        <ele>56.799999237061</ele>
        <time>2011-03-14T11:37:48.000Z</time>
      </trkpt>
      <trkpt lat="43.65837" lon="7.1315">
        <ele>58.200000762939</ele>
        <time>2011-03-14T11:37:54.000Z</time>
      </trkpt>
      <trkpt lat="43.65834" lon="7.13165">
        <ele>60.599998474121</ele>
        <time>2011-03-14T11:37:58.000Z</time>
      </trkpt>
      <trkpt lat="43.65829" lon="7.13189">
        <ele>63.400001525879</ele>
        <time>2011-03-14T11:38:04.000Z</time>
      </trkpt>
      <trkpt lat="43.65825" lon="7.13223">
        <ele>64.400001525879</ele>
        <time>2011-03-14T11:38:12.000Z</time>
      </trkpt>
      <trkpt lat="43.65823" lon="7.13261">
        <ele>61</ele>
        <time>2011-03-14T11:38:20.000Z</time>
      </trkpt>
      <trkpt lat="43.65823" lon="7.13281">
        <ele>59.200000762939</ele>
        <time>2011-03-14T11:38:25.000Z</time>
      </trkpt>
      <trkpt lat="43.6582" lon="7.13303">
        <ele>59.200000762939</ele>
        <time>2011-03-14T11:38:30.000Z</time>
      </trkpt>
      <trkpt lat="43.65817" lon="7.13325">
        <ele>59.200000762939</ele>
        <time>2011-03-14T11:38:35.000Z</time>
      </trkpt>
      <trkpt lat="43.6581" lon="7.13344">
        <ele>59.200000762939</ele>
        <time>2011-03-14T11:38:40.000Z</time>
      </trkpt>
      <trkpt lat="43.65805" lon="7.13361">
        <ele>59.200000762939</ele>
        <time>2011-03-14T11:38:45.000Z</time>
      </trkpt>
      <trkpt lat="43.65799" lon="7.1338">
        <ele>61</ele>
        <time>2011-03-14T11:38:50.000Z</time>
      </trkpt>
      <trkpt lat="43.65793" lon="7.13393">
        <ele>66.400001525879</ele>
        <time>2011-03-14T11:38:55.000Z</time>
      </trkpt>
      <trkpt lat="43.65781" lon="7.13411">
        <ele>68.800003051758</ele>
        <time>2011-03-14T11:39:02.000Z</time>
      </trkpt>
      <trkpt lat="43.65778" lon="7.13421">
        <ele>72.599998474121</ele>
        <time>2011-03-14T11:39:06.000Z</time>
      </trkpt>
      <trkpt lat="43.65771" lon="7.13441">
        <ele>78</ele>
        <time>2011-03-14T11:39:12.000Z</time>
      </trkpt>
      <trkpt lat="43.65766" lon="7.13453">
        <ele>77.400001525879</ele>
        <time>2011-03-14T11:39:15.000Z</time>
      </trkpt>
      <trkpt lat="43.65747" lon="7.1345">
        <ele>72.199996948242</ele>
        <time>2011-03-14T11:39:21.000Z</time>
      </trkpt>
      <trkpt lat="43.65741" lon="7.13441">
        <ele>69.800003051758</ele>
        <time>2011-03-14T11:39:24.000Z</time>
      </trkpt>
      <trkpt lat="43.65731" lon="7.13425">
        <ele>61</ele>
        <time>2011-03-14T11:39:29.000Z</time>
      </trkpt>
      <trkpt lat="43.65731" lon="7.13407">
        <ele>57.200000762939</ele>
        <time>2011-03-14T11:39:34.000Z</time>
      </trkpt>
      <trkpt lat="43.65728" lon="7.13392">
        <ele>54.400001525879</ele>
        <time>2011-03-14T11:39:38.000Z</time>
      </trkpt>
      <trkpt lat="43.65724" lon="7.13377">
        <ele>51.400001525879</ele>
        <time>2011-03-14T11:39:42.000Z</time>
      </trkpt>
      <trkpt lat="43.6572" lon="7.13371">
        <ele>49.599998474121</ele>
        <time>2011-03-14T11:39:44.000Z</time>
      </trkpt>
      <trkpt lat="43.6571" lon="7.13356">
        <ele>44.799999237061</ele>
        <time>2011-03-14T11:39:50.000Z</time>
      </trkpt>
      <trkpt lat="43.657" lon="7.13349">
        <ele>45.200000762939</ele>
        <time>2011-03-14T11:39:55.000Z</time>
      </trkpt>
      <trkpt lat="43.65689" lon="7.1334">
        <ele>45.599998474121</ele>
        <time>2011-03-14T11:40:00.000Z</time>
      </trkpt>
      <trkpt lat="43.65682" lon="7.13334">
        <ele>43.200000762939</ele>
        <time>2011-03-14T11:40:05.000Z</time>
      </trkpt>
      <trkpt lat="43.65677" lon="7.13326">
        <ele>42.400001525879</ele>
        <time>2011-03-14T11:40:10.000Z</time>
      </trkpt>
      <trkpt lat="43.6567" lon="7.13324">
        <ele>40.400001525879</ele>
        <time>2011-03-14T11:40:13.000Z</time>
      </trkpt>
      <trkpt lat="43.65667" lon="7.13324">
        <ele>40.400001525879</ele>
        <time>2011-03-14T11:40:14.000Z</time>
      </trkpt>
      <trkpt lat="43.65657" lon="7.13336">
        <ele>23.60000038147</ele>
        <time>2011-03-14T11:40:36.000Z</time>
      </trkpt>
      <trkpt lat="43.6565" lon="7.13325">
        <ele>24</ele>
        <time>2011-03-14T11:40:39.000Z</time>
      </trkpt>
      <trkpt lat="43.6563" lon="7.13309">
        <ele>22.60000038147</ele>
        <time>2011-03-14T11:40:45.000Z</time>
      </trkpt>
      <trkpt lat="43.65618" lon="7.13299">
        <ele>21.60000038147</ele>
        <time>2011-03-14T11:40:49.000Z</time>
      </trkpt>
      <trkpt lat="43.65606" lon="7.13288">
        <ele>21.60000038147</ele>
        <time>2011-03-14T11:40:53.000Z</time>
      </trkpt>
      <trkpt lat="43.65587" lon="7.13278">
        <ele>20.200000762939</ele>
        <time>2011-03-14T11:40:59.000Z</time>
      </trkpt>
      <trkpt lat="43.65572" lon="7.13268">
        <ele>19.200000762939</ele>
        <time>2011-03-14T11:41:04.000Z</time>
      </trkpt>
      <trkpt lat="43.65557" lon="7.13259">
        <ele>17.799999237061</ele>
        <time>2011-03-14T11:41:09.000Z</time>
      </trkpt>
      <trkpt lat="43.65537" lon="7.13249">
        <ele>16.799999237061</ele>
        <time>2011-03-14T11:41:15.000Z</time>
      </trkpt>
      <trkpt lat="43.65516" lon="7.13236">
        <ele>13</ele>
        <time>2011-03-14T11:41:22.000Z</time>
      </trkpt>
      <trkpt lat="43.655" lon="7.1323">
        <ele>14</ele>
        <time>2011-03-14T11:41:27.000Z</time>
      </trkpt>
      <trkpt lat="43.65485" lon="7.13215">
        <ele>12</ele>
        <time>2011-03-14T11:41:33.000Z</time>
      </trkpt>
      <trkpt lat="43.65476" lon="7.13191">
        <ele>9.1999998092651</ele>
        <time>2011-03-14T11:41:39.000Z</time>
      </trkpt>
      <trkpt lat="43.65469" lon="7.13167">
        <ele>11.60000038147</ele>
        <time>2011-03-14T11:41:45.000Z</time>
      </trkpt>
      <trkpt lat="43.65469" lon="7.13155">
        <ele>11</ele>
        <time>2011-03-14T11:41:48.000Z</time>
      </trkpt>
      <trkpt lat="43.65482" lon="7.13142">
        <ele>7.8000001907349</ele>
        <time>2011-03-14T11:41:53.000Z</time>
      </trkpt>
      <trkpt lat="43.6551" lon="7.13131">
        <ele>7.1999998092651</ele>
        <time>2011-03-14T11:42:01.000Z</time>
      </trkpt>
      <trkpt lat="43.65532" lon="7.13121">
        <ele>7.1999998092651</ele>
        <time>2011-03-14T11:42:08.000Z</time>
      </trkpt>
      <trkpt lat="43.6555" lon="7.13112">
        <ele>5.8000001907349</ele>
        <time>2011-03-14T11:42:14.000Z</time>
      </trkpt>
      <trkpt lat="43.65564" lon="7.13099">
        <ele>6.1999998092651</ele>
        <time>2011-03-14T11:42:19.000Z</time>
      </trkpt>
      <trkpt lat="43.65578" lon="7.1308">
        <ele>7.1999998092651</ele>
        <time>2011-03-14T11:42:25.000Z</time>
      </trkpt>
      <trkpt lat="43.65589" lon="7.13063">
        <ele>8.1999998092651</ele>
        <time>2011-03-14T11:42:30.000Z</time>
      </trkpt>
      <trkpt lat="43.65605" lon="7.13048">
        <ele>8.1999998092651</ele>
        <time>2011-03-14T11:42:36.000Z</time>
      </trkpt>
      <trkpt lat="43.65621" lon="7.1303">
        <ele>8.6000003814697</ele>
        <time>2011-03-14T11:42:43.000Z</time>
      </trkpt>
      <trkpt lat="43.65631" lon="7.13015">
        <ele>7.1999998092651</ele>
        <time>2011-03-14T11:42:48.000Z</time>
      </trkpt>
      <trkpt lat="43.65646" lon="7.12997">
        <ele>5.4000000953674</ele>
        <time>2011-03-14T11:42:54.000Z</time>
      </trkpt>
      <trkpt lat="43.65659" lon="7.12982">
        <ele>4.8000001907349</ele>
        <time>2011-03-14T11:42:59.000Z</time>
      </trkpt>
      <trkpt lat="43.65671" lon="7.12967">
        <ele>4.8000001907349</ele>
        <time>2011-03-14T11:43:04.000Z</time>
      </trkpt>
      <trkpt lat="43.65685" lon="7.12949">
        <ele>3.4000000953674</ele>
        <time>2011-03-14T11:43:10.000Z</time>
      </trkpt>
      <trkpt lat="43.65693" lon="7.12935">
        <ele>4.8000001907349</ele>
        <time>2011-03-14T11:43:14.000Z</time>
      </trkpt>
      <trkpt lat="43.65709" lon="7.12911">
        <ele>6.8000001907349</ele>
        <time>2011-03-14T11:43:21.000Z</time>
      </trkpt>
      <trkpt lat="43.65721" lon="7.12892">
        <ele>7.1999998092651</ele>
        <time>2011-03-14T11:43:27.000Z</time>
      </trkpt>
      <trkpt lat="43.65733" lon="7.12869">
        <ele>8.1999998092651</ele>
        <time>2011-03-14T11:43:34.000Z</time>
      </trkpt>
      <trkpt lat="43.65742" lon="7.12851">
        <ele>8.6000003814697</ele>
        <time>2011-03-14T11:43:39.000Z</time>
      </trkpt>
      <trkpt lat="43.6575" lon="7.12836">
        <ele>9.1999998092651</ele>
        <time>2011-03-14T11:43:43.000Z</time>
      </trkpt>
      <trkpt lat="43.65759" lon="7.12814">
        <ele>9.6000003814697</ele>
        <time>2011-03-14T11:43:49.000Z</time>
      </trkpt>
      <trkpt lat="43.6577" lon="7.12792">
        <ele>8.6000003814697</ele>
        <time>2011-03-14T11:43:55.000Z</time>
      </trkpt>
      <trkpt lat="43.65778" lon="7.12775">
        <ele>8.6000003814697</ele>
        <time>2011-03-14T11:44:00.000Z</time>
      </trkpt>
      <trkpt lat="43.65785" lon="7.1276">
        <ele>8.1999998092651</ele>
        <time>2011-03-14T11:44:04.000Z</time>
      </trkpt>
      <trkpt lat="43.65794" lon="7.12739">
        <ele>8.6000003814697</ele>
        <time>2011-03-14T11:44:10.000Z</time>
      </trkpt>
      <trkpt lat="43.658" lon="7.12715">
        <ele>9.1999998092651</ele>
        <time>2011-03-14T11:44:16.000Z</time>
      </trkpt>
      <trkpt lat="43.65804" lon="7.12694">
        <ele>8.6000003814697</ele>
        <time>2011-03-14T11:44:21.000Z</time>
      </trkpt>
      <trkpt lat="43.65806" lon="7.12674">
        <ele>10.199999809265</ele>
        <time>2011-03-14T11:44:26.000Z</time>
      </trkpt>
      <trkpt lat="43.65807" lon="7.12666">
        <ele>10.199999809265</ele>
        <time>2011-03-14T11:44:28.000Z</time>
      </trkpt>
      <trkpt lat="43.65808" lon="7.1264">
        <ele>10.199999809265</ele>
        <time>2011-03-14T11:44:34.000Z</time>
      </trkpt>
      <trkpt lat="43.65809" lon="7.12627">
        <ele>10.199999809265</ele>
        <time>2011-03-14T11:44:37.000Z</time>
      </trkpt>
      <trkpt lat="43.6581" lon="7.126">
        <ele>9.6000003814697</ele>
        <time>2011-03-14T11:44:43.000Z</time>
      </trkpt>
      <trkpt lat="43.65806" lon="7.12579">
        <ele>9.6000003814697</ele>
        <time>2011-03-14T11:44:47.000Z</time>
      </trkpt>
      <trkpt lat="43.65805" lon="7.12563">
        <ele>11</ele>
        <time>2011-03-14T11:44:51.000Z</time>
      </trkpt>
      <trkpt lat="43.65804" lon="7.12537">
        <ele>12.60000038147</ele>
        <time>2011-03-14T11:44:57.000Z</time>
      </trkpt>
      <trkpt lat="43.65802" lon="7.12519">
        <ele>13</ele>
        <time>2011-03-14T11:45:01.000Z</time>
      </trkpt>
      <trkpt lat="43.658" lon="7.12501">
        <ele>12</ele>
        <time>2011-03-14T11:45:06.000Z</time>
      </trkpt>
      <trkpt lat="43.65792" lon="7.12471">
        <ele>13.39999961853</ele>
        <time>2011-03-14T11:45:13.000Z</time>
      </trkpt>
      <trkpt lat="43.65786" lon="7.12452">
        <ele>13.39999961853</ele>
        <time>2011-03-14T11:45:18.000Z</time>
      </trkpt>
      <trkpt lat="43.65783" lon="7.12442">
        <ele>13.39999961853</ele>
        <time>2011-03-14T11:45:21.000Z</time>
      </trkpt>
      <trkpt lat="43.65784" lon="7.12423">
        <ele>12.60000038147</ele>
        <time>2011-03-14T11:45:26.000Z</time>
      </trkpt>
      <trkpt lat="43.65785" lon="7.12399">
        <ele>16.39999961853</ele>
        <time>2011-03-14T11:45:31.000Z</time>
      </trkpt>
      <trkpt lat="43.65787" lon="7.12376">
        <ele>18.799999237061</ele>
        <time>2011-03-14T11:45:36.000Z</time>
      </trkpt>
      <trkpt lat="43.6578" lon="7.12356">
        <ele>18.39999961853</ele>
        <time>2011-03-14T11:45:41.000Z</time>
      </trkpt>
      <trkpt lat="43.65772" lon="7.12336">
        <ele>16.799999237061</ele>
        <time>2011-03-14T11:45:46.000Z</time>
      </trkpt>
      <trkpt lat="43.65761" lon="7.12328">
        <ele>17.799999237061</ele>
        <time>2011-03-14T11:45:51.000Z</time>
      </trkpt>
      <trkpt lat="43.65749" lon="7.12331">
        <ele>16.39999961853</ele>
        <time>2011-03-14T11:45:55.000Z</time>
      </trkpt>
      <trkpt lat="43.65735" lon="7.12331">
        <ele>16.39999961853</ele>
        <time>2011-03-14T11:46:00.000Z</time>
      </trkpt>
      <trkpt lat="43.65725" lon="7.1233">
        <ele>16.799999237061</ele>
        <time>2011-03-14T11:46:04.000Z</time>
      </trkpt>
      <trkpt lat="43.6571" lon="7.1233">
        <ele>15.800000190735</ele>
        <time>2011-03-14T11:46:09.000Z</time>
      </trkpt>
      <trkpt lat="43.657" lon="7.1233">
        <ele>13.39999961853</ele>
        <time>2011-03-14T11:46:13.000Z</time>
      </trkpt>
      <trkpt lat="43.65687" lon="7.12335">
        <ele>10.60000038147</ele>
        <time>2011-03-14T11:46:17.000Z</time>
      </trkpt>
      <trkpt lat="43.65673" lon="7.12343">
        <ele>10.199999809265</ele>
        <time>2011-03-14T11:46:22.000Z</time>
      </trkpt>
      <trkpt lat="43.65666" lon="7.12359">
        <ele>9.1999998092651</ele>
        <time>2011-03-14T11:46:26.000Z</time>
      </trkpt>
      <trkpt lat="43.65657" lon="7.12368">
        <ele>9.6000003814697</ele>
        <time>2011-03-14T11:46:30.000Z</time>
      </trkpt>
      <trkpt lat="43.6565" lon="7.12376">
        <ele>10.199999809265</ele>
        <time>2011-03-14T11:46:36.000Z</time>
      </trkpt>
      <trkpt lat="43.65638" lon="7.12375">
        <ele>9.6000003814697</ele>
        <time>2011-03-14T11:46:40.000Z</time>
      </trkpt>
      <trkpt lat="43.65631" lon="7.12375">
        <ele>11</ele>
        <time>2011-03-14T11:46:42.000Z</time>
      </trkpt>
      <trkpt lat="43.65627" lon="7.1238">
        <ele>11</ele>
        <time>2011-03-14T11:46:46.000Z</time>
      </trkpt>
      <trkpt lat="43.65622" lon="7.12377">
        <ele>11.60000038147</ele>
        <time>2011-03-14T11:46:49.000Z</time>
      </trkpt>
      <trkpt lat="43.65604" lon="7.12366">
        <ele>13</ele>
        <time>2011-03-14T11:46:55.000Z</time>
      </trkpt>
      <trkpt lat="43.6559" lon="7.12361">
        <ele>13.39999961853</ele>
        <time>2011-03-14T11:47:00.000Z</time>
      </trkpt>
      <trkpt lat="43.65581" lon="7.1237">
        <ele>15.39999961853</ele>
        <time>2011-03-14T11:47:05.000Z</time>
      </trkpt>
      <trkpt lat="43.65568" lon="7.12389">
        <ele>13.39999961853</ele>
        <time>2011-03-14T11:47:11.000Z</time>
      </trkpt>
      <trkpt lat="43.6556" lon="7.12402">
        <ele>14</ele>
        <time>2011-03-14T11:47:15.000Z</time>
      </trkpt>
      <trkpt lat="43.65552" lon="7.12417">
        <ele>12.60000038147</ele>
        <time>2011-03-14T11:47:19.000Z</time>
      </trkpt>
      <trkpt lat="43.65544" lon="7.12436">
        <ele>10.199999809265</ele>
        <time>2011-03-14T11:47:24.000Z</time>
      </trkpt>
      <trkpt lat="43.65531" lon="7.12455">
        <ele>8.6000003814697</ele>
        <time>2011-03-14T11:47:30.000Z</time>
      </trkpt>
      <trkpt lat="43.6552" lon="7.12472">
        <ele>7.8000001907349</ele>
        <time>2011-03-14T11:47:35.000Z</time>
      </trkpt>
      <trkpt lat="43.65508" lon="7.12485">
        <ele>5.8000001907349</ele>
        <time>2011-03-14T11:47:40.000Z</time>
      </trkpt>
      <trkpt lat="43.6549" lon="7.12505">
        <ele>4.4000000953674</ele>
        <time>2011-03-14T11:47:47.000Z</time>
      </trkpt>
      <trkpt lat="43.6548" lon="7.12518">
        <ele>4.8000001907349</ele>
        <time>2011-03-14T11:47:51.000Z</time>
      </trkpt>
      <trkpt lat="43.65467" lon="7.12533">
        <ele>5.4000000953674</ele>
        <time>2011-03-14T11:47:56.000Z</time>
      </trkpt>
      <trkpt lat="43.65454" lon="7.12546">
        <ele>5.4000000953674</ele>
        <time>2011-03-14T11:48:01.000Z</time>
      </trkpt>
      <trkpt lat="43.65437" lon="7.12563">
        <ele>5.8000001907349</ele>
        <time>2011-03-14T11:48:08.000Z</time>
      </trkpt>
      <trkpt lat="43.65423" lon="7.12576">
        <ele>6.1999998092651</ele>
        <time>2011-03-14T11:48:13.000Z</time>
      </trkpt>
      <trkpt lat="43.6541" lon="7.12589">
        <ele>6.8000001907349</ele>
        <time>2011-03-14T11:48:18.000Z</time>
      </trkpt>
      <trkpt lat="43.65394" lon="7.12604">
        <ele>4.4000000953674</ele>
        <time>2011-03-14T11:48:24.000Z</time>
      </trkpt>
      <trkpt lat="43.65377" lon="7.12616">
        <ele>4.8000001907349</ele>
        <time>2011-03-14T11:48:29.000Z</time>
      </trkpt>
      <trkpt lat="43.65363" lon="7.12628">
        <ele>3.7999999523163</ele>
        <time>2011-03-14T11:48:34.000Z</time>
      </trkpt>
      <trkpt lat="43.65346" lon="7.12641">
        <ele>5.4000000953674</ele>
        <time>2011-03-14T11:48:40.000Z</time>
      </trkpt>
      <trkpt lat="43.65336" lon="7.12651">
        <ele>6.8000001907349</ele>
        <time>2011-03-14T11:48:44.000Z</time>
      </trkpt>
      <trkpt lat="43.65316" lon="7.12652">
        <ele>8.1999998092651</ele>
        <time>2011-03-14T11:48:50.000Z</time>
      </trkpt>
      <trkpt lat="43.65307" lon="7.1266">
        <ele>7.8000001907349</ele>
        <time>2011-03-14T11:48:54.000Z</time>
      </trkpt>
      <trkpt lat="43.65293" lon="7.12677">
        <ele>7.8000001907349</ele>
        <time>2011-03-14T11:48:59.000Z</time>
      </trkpt>
      <trkpt lat="43.65284" lon="7.12689">
        <ele>8.1999998092651</ele>
        <time>2011-03-14T11:49:03.000Z</time>
      </trkpt>
      <trkpt lat="43.65272" lon="7.12703">
        <ele>8.1999998092651</ele>
        <time>2011-03-14T11:49:08.000Z</time>
      </trkpt>
      <trkpt lat="43.65259" lon="7.12718">
        <ele>8.1999998092651</ele>
        <time>2011-03-14T11:49:13.000Z</time>
      </trkpt>
      <trkpt lat="43.65248" lon="7.12729">
        <ele>7.8000001907349</ele>
        <time>2011-03-14T11:49:17.000Z</time>
      </trkpt>
      <trkpt lat="43.65234" lon="7.1274">
        <ele>7.8000001907349</ele>
        <time>2011-03-14T11:49:22.000Z</time>
      </trkpt>
      <trkpt lat="43.65223" lon="7.12746">
        <ele>6.8000001907349</ele>
        <time>2011-03-14T11:49:26.000Z</time>
      </trkpt>
      <trkpt lat="43.65207" lon="7.12752">
        <ele>7.1999998092651</ele>
        <time>2011-03-14T11:49:31.000Z</time>
      </trkpt>
      <trkpt lat="43.65191" lon="7.12755">
        <ele>7.8000001907349</ele>
        <time>2011-03-14T11:49:36.000Z</time>
      </trkpt>
      <trkpt lat="43.65177" lon="7.1276">
        <ele>8.1999998092651</ele>
        <time>2011-03-14T11:49:40.000Z</time>
      </trkpt>
      <trkpt lat="43.6516" lon="7.12767">
        <ele>10.60000038147</ele>
        <time>2011-03-14T11:49:45.000Z</time>
      </trkpt>
      <trkpt lat="43.65145" lon="7.12766">
        <ele>10.60000038147</ele>
        <time>2011-03-14T11:49:50.000Z</time>
      </trkpt>
      <trkpt lat="43.65126" lon="7.12767">
        <ele>10.199999809265</ele>
        <time>2011-03-14T11:49:56.000Z</time>
      </trkpt>
      <trkpt lat="43.65104" lon="7.12766">
        <ele>12.60000038147</ele>
        <time>2011-03-14T11:50:02.000Z</time>
      </trkpt>
      <trkpt lat="43.65086" lon="7.12759">
        <ele>15.39999961853</ele>
        <time>2011-03-14T11:50:07.000Z</time>
      </trkpt>
      <trkpt lat="43.65066" lon="7.12747">
        <ele>17.39999961853</ele>
        <time>2011-03-14T11:50:13.000Z</time>
      </trkpt>
      <trkpt lat="43.65046" lon="7.12737">
        <ele>18.39999961853</ele>
        <time>2011-03-14T11:50:19.000Z</time>
      </trkpt>
      <trkpt lat="43.65032" lon="7.12733">
        <ele>17.799999237061</ele>
        <time>2011-03-14T11:50:24.000Z</time>
      </trkpt>
      <trkpt lat="43.65005" lon="7.1273">
        <ele>17.799999237061</ele>
        <time>2011-03-14T11:50:32.000Z</time>
      </trkpt>
      <trkpt lat="43.64986" lon="7.12727">
        <ele>15.800000190735</ele>
        <time>2011-03-14T11:50:38.000Z</time>
      </trkpt>
      <trkpt lat="43.64969" lon="7.12722">
        <ele>12.60000038147</ele>
        <time>2011-03-14T11:50:44.000Z</time>
      </trkpt>
      <trkpt lat="43.64954" lon="7.12719">
        <ele>10.60000038147</ele>
        <time>2011-03-14T11:50:49.000Z</time>
      </trkpt>
      <trkpt lat="43.64937" lon="7.12715">
        <ele>9.1999998092651</ele>
        <time>2011-03-14T11:50:54.000Z</time>
      </trkpt>
      <trkpt lat="43.6492" lon="7.12713">
        <ele>12</ele>
        <time>2011-03-14T11:50:59.000Z</time>
      </trkpt>
      <trkpt lat="43.64894" lon="7.1271">
        <ele>14.39999961853</ele>
        <time>2011-03-14T11:51:07.000Z</time>
      </trkpt>
      <trkpt lat="43.64875" lon="7.12714">
        <ele>15</ele>
        <time>2011-03-14T11:51:13.000Z</time>
      </trkpt>
      <trkpt lat="43.64864" lon="7.12726">
        <ele>13</ele>
        <time>2011-03-14T11:51:18.000Z</time>
      </trkpt>
      <trkpt lat="43.64856" lon="7.12743">
        <ele>11</ele>
        <time>2011-03-14T11:51:23.000Z</time>
      </trkpt>
      <trkpt lat="43.64849" lon="7.12762">
        <ele>10.60000038147</ele>
        <time>2011-03-14T11:51:28.000Z</time>
      </trkpt>
      <trkpt lat="43.64841" lon="7.1278">
        <ele>11</ele>
        <time>2011-03-14T11:51:33.000Z</time>
      </trkpt>
      <trkpt lat="43.64832" lon="7.12799">
        <ele>11</ele>
        <time>2011-03-14T11:51:38.000Z</time>
      </trkpt>
      <trkpt lat="43.64823" lon="7.12816">
        <ele>12</ele>
        <time>2011-03-14T11:51:43.000Z</time>
      </trkpt>
      <trkpt lat="43.64813" lon="7.12834">
        <ele>12.60000038147</ele>
        <time>2011-03-14T11:51:48.000Z</time>
      </trkpt>
      <trkpt lat="43.64806" lon="7.12847">
        <ele>12.60000038147</ele>
        <time>2011-03-14T11:51:52.000Z</time>
      </trkpt>
      <trkpt lat="43.64798" lon="7.12869">
        <ele>11.60000038147</ele>
        <time>2011-03-14T11:51:58.000Z</time>
      </trkpt>
      <trkpt lat="43.64796" lon="7.12873">
        <ele>11.60000038147</ele>
        <time>2011-03-14T11:51:59.000Z</time>
      </trkpt>
      <trkpt lat="43.64785" lon="7.12896">
        <ele>12.60000038147</ele>
        <time>2011-03-14T11:52:06.000Z</time>
      </trkpt>
      <trkpt lat="43.64778" lon="7.12914">
        <ele>13</ele>
        <time>2011-03-14T11:52:11.000Z</time>
      </trkpt>
      <trkpt lat="43.64769" lon="7.1293">
        <ele>15.800000190735</ele>
        <time>2011-03-14T11:52:16.000Z</time>
      </trkpt>
      <trkpt lat="43.64757" lon="7.12949">
        <ele>17.39999961853</ele>
        <time>2011-03-14T11:52:22.000Z</time>
      </trkpt>
      <trkpt lat="43.64749" lon="7.12965">
        <ele>18.799999237061</ele>
        <time>2011-03-14T11:52:27.000Z</time>
      </trkpt>
      <trkpt lat="43.64741" lon="7.12981">
        <ele>21.60000038147</ele>
        <time>2011-03-14T11:52:32.000Z</time>
      </trkpt>
      <trkpt lat="43.64735" lon="7.12997">
        <ele>22.200000762939</ele>
        <time>2011-03-14T11:52:37.000Z</time>
      </trkpt>
      <trkpt lat="43.64732" lon="7.12999">
        <ele>22.200000762939</ele>
        <time>2011-03-14T11:52:38.000Z</time>
      </trkpt>
      <trkpt lat="43.64724" lon="7.13016">
        <ele>22.60000038147</ele>
        <time>2011-03-14T11:52:43.000Z</time>
      </trkpt>
      <trkpt lat="43.64721" lon="7.13026">
        <ele>22.60000038147</ele>
        <time>2011-03-14T11:52:46.000Z</time>
      </trkpt>
      <trkpt lat="43.64708" lon="7.1304">
        <ele>22.60000038147</ele>
        <time>2011-03-14T11:52:51.000Z</time>
      </trkpt>
      <trkpt lat="43.647" lon="7.1305">
        <ele>23.200000762939</ele>
        <time>2011-03-14T11:52:55.000Z</time>
      </trkpt>
      <trkpt lat="43.64693" lon="7.13063">
        <ele>24</ele>
        <time>2011-03-14T11:52:59.000Z</time>
      </trkpt>
      <trkpt lat="43.64688" lon="7.13076">
        <ele>26</ele>
        <time>2011-03-14T11:53:03.000Z</time>
      </trkpt>
      <trkpt lat="43.64683" lon="7.13093">
        <ele>27</ele>
        <time>2011-03-14T11:53:08.000Z</time>
      </trkpt>
      <trkpt lat="43.64682" lon="7.13109">
        <ele>29.799999237061</ele>
        <time>2011-03-14T11:53:13.000Z</time>
      </trkpt>
      <trkpt lat="43.64691" lon="7.13121">
        <ele>33.200000762939</ele>
        <time>2011-03-14T11:53:18.000Z</time>
      </trkpt>
      <trkpt lat="43.64702" lon="7.13132">
        <ele>38</ele>
        <time>2011-03-14T11:53:23.000Z</time>
      </trkpt>
      <trkpt lat="43.64707" lon="7.13137">
        <ele>38.400001525879</ele>
        <time>2011-03-14T11:53:25.000Z</time>
      </trkpt>
      <trkpt lat="43.64716" lon="7.13153">
        <ele>40.400001525879</ele>
        <time>2011-03-14T11:53:31.000Z</time>
      </trkpt>
      <trkpt lat="43.64722" lon="7.13167">
        <ele>41.799999237061</ele>
        <time>2011-03-14T11:53:36.000Z</time>
      </trkpt>
      <trkpt lat="43.64725" lon="7.13185">
        <ele>40.400001525879</ele>
        <time>2011-03-14T11:53:41.000Z</time>
      </trkpt>
      <trkpt lat="43.64728" lon="7.13203">
        <ele>40.400001525879</ele>
        <time>2011-03-14T11:53:46.000Z</time>
      </trkpt>
      <trkpt lat="43.64732" lon="7.13223">
        <ele>40.400001525879</ele>
        <time>2011-03-14T11:53:51.000Z</time>
      </trkpt>
      <trkpt lat="43.64726" lon="7.13243">
        <ele>40.799999237061</ele>
        <time>2011-03-14T11:53:57.000Z</time>
      </trkpt>
      <trkpt lat="43.6472" lon="7.13255">
        <ele>40</ele>
        <time>2011-03-14T11:54:01.000Z</time>
      </trkpt>
      <trkpt lat="43.64707" lon="7.13268">
        <ele>38</ele>
        <time>2011-03-14T11:54:07.000Z</time>
      </trkpt>
      <trkpt lat="43.64696" lon="7.1328">
        <ele>39.400001525879</ele>
        <time>2011-03-14T11:54:12.000Z</time>
      </trkpt>
      <trkpt lat="43.64685" lon="7.13293">
        <ele>39</ele>
        <time>2011-03-14T11:54:16.000Z</time>
      </trkpt>
      <trkpt lat="43.64673" lon="7.13308">
        <ele>37.599998474121</ele>
        <time>2011-03-14T11:54:21.000Z</time>
      </trkpt>
      <trkpt lat="43.6466" lon="7.1332">
        <ele>34.200000762939</ele>
        <time>2011-03-14T11:54:26.000Z</time>
      </trkpt>
      <trkpt lat="43.64647" lon="7.13328">
        <ele>33.599998474121</ele>
        <time>2011-03-14T11:54:30.000Z</time>
      </trkpt>
      <trkpt lat="43.64627" lon="7.13334">
        <ele>31.799999237061</ele>
        <time>2011-03-14T11:54:36.000Z</time>
      </trkpt>
      <trkpt lat="43.64613" lon="7.13337">
        <ele>31.200000762939</ele>
        <time>2011-03-14T11:54:41.000Z</time>
      </trkpt>
      <trkpt lat="43.64601" lon="7.13337">
        <ele>30.799999237061</ele>
        <time>2011-03-14T11:54:45.000Z</time>
      </trkpt>
      <trkpt lat="43.64587" lon="7.13337">
        <ele>32.799999237061</ele>
        <time>2011-03-14T11:54:49.000Z</time>
      </trkpt>
      <trkpt lat="43.64569" lon="7.13335">
        <ele>33.200000762939</ele>
        <time>2011-03-14T11:54:55.000Z</time>
      </trkpt>
      <trkpt lat="43.64557" lon="7.13334">
        <ele>33.599998474121</ele>
        <time>2011-03-14T11:54:58.000Z</time>
      </trkpt>
      <trkpt lat="43.64543" lon="7.13331">
        <ele>34.599998474121</ele>
        <time>2011-03-14T11:55:02.000Z</time>
      </trkpt>
      <trkpt lat="43.64526" lon="7.13325">
        <ele>34.200000762939</ele>
        <time>2011-03-14T11:55:07.000Z</time>
      </trkpt>
      <trkpt lat="43.64508" lon="7.13319">
        <ele>32.799999237061</ele>
        <time>2011-03-14T11:55:12.000Z</time>
      </trkpt>
      <trkpt lat="43.64487" lon="7.13313">
        <ele>32.799999237061</ele>
        <time>2011-03-14T11:55:18.000Z</time>
      </trkpt>
      <trkpt lat="43.64467" lon="7.13308">
        <ele>33.599998474121</ele>
        <time>2011-03-14T11:55:24.000Z</time>
      </trkpt>
      <trkpt lat="43.64451" lon="7.13305">
        <ele>33.599998474121</ele>
        <time>2011-03-14T11:55:28.000Z</time>
      </trkpt>
      <trkpt lat="43.64434" lon="7.13298">
        <ele>33.599998474121</ele>
        <time>2011-03-14T11:55:33.000Z</time>
      </trkpt>
      <trkpt lat="43.64415" lon="7.13294">
        <ele>36</ele>
        <time>2011-03-14T11:55:38.000Z</time>
      </trkpt>
      <trkpt lat="43.64399" lon="7.13285">
        <ele>33.599998474121</ele>
        <time>2011-03-14T11:55:43.000Z</time>
      </trkpt>
      <trkpt lat="43.64377" lon="7.1328">
        <ele>32.200000762939</ele>
        <time>2011-03-14T11:55:49.000Z</time>
      </trkpt>
      <trkpt lat="43.6436" lon="7.13281">
        <ele>29.799999237061</ele>
        <time>2011-03-14T11:55:54.000Z</time>
      </trkpt>
      <trkpt lat="43.64347" lon="7.13282">
        <ele>28.39999961853</ele>
        <time>2011-03-14T11:55:58.000Z</time>
      </trkpt>
      <trkpt lat="43.64335" lon="7.13277">
        <ele>25</ele>
        <time>2011-03-14T11:56:02.000Z</time>
      </trkpt>
      <trkpt lat="43.6432" lon="7.1327">
        <ele>22.200000762939</ele>
        <time>2011-03-14T11:56:07.000Z</time>
      </trkpt>
      <trkpt lat="43.64308" lon="7.13262">
        <ele>20.200000762939</ele>
        <time>2011-03-14T11:56:11.000Z</time>
      </trkpt>
      <trkpt lat="43.64297" lon="7.13252">
        <ele>19.200000762939</ele>
        <time>2011-03-14T11:56:15.000Z</time>
      </trkpt>
      <trkpt lat="43.64283" lon="7.13238">
        <ele>18.799999237061</ele>
        <time>2011-03-14T11:56:20.000Z</time>
      </trkpt>
      <trkpt lat="43.64268" lon="7.13223">
        <ele>21.200000762939</ele>
        <time>2011-03-14T11:56:25.000Z</time>
      </trkpt>
      <trkpt lat="43.64253" lon="7.13206">
        <ele>22.60000038147</ele>
        <time>2011-03-14T11:56:31.000Z</time>
      </trkpt>
      <trkpt lat="43.64241" lon="7.13191">
        <ele>23.200000762939</ele>
        <time>2011-03-14T11:56:36.000Z</time>
      </trkpt>
      <trkpt lat="43.64224" lon="7.13169">
        <ele>24</ele>
        <time>2011-03-14T11:56:43.000Z</time>
      </trkpt>
      <trkpt lat="43.64213" lon="7.13156">
        <ele>25</ele>
        <time>2011-03-14T11:56:48.000Z</time>
      </trkpt>
      <trkpt lat="43.64198" lon="7.13138">
        <ele>28</ele>
        <time>2011-03-14T11:56:55.000Z</time>
      </trkpt>
      <trkpt lat="43.64188" lon="7.13125">
        <ele>29.39999961853</ele>
        <time>2011-03-14T11:57:00.000Z</time>
      </trkpt>
      <trkpt lat="43.64179" lon="7.13111">
        <ele>29.799999237061</ele>
        <time>2011-03-14T11:57:05.000Z</time>
      </trkpt>
      <trkpt lat="43.64167" lon="7.13095">
        <ele>30.799999237061</ele>
        <time>2011-03-14T11:57:11.000Z</time>
      </trkpt>
      <trkpt lat="43.64153" lon="7.13075">
        <ele>33.200000762939</ele>
        <time>2011-03-14T11:57:18.000Z</time>
      </trkpt>
      <trkpt lat="43.64141" lon="7.13058">
        <ele>34.599998474121</ele>
        <time>2011-03-14T11:57:24.000Z</time>
      </trkpt>
      <trkpt lat="43.64132" lon="7.13046">
        <ele>36</ele>
        <time>2011-03-14T11:57:29.000Z</time>
      </trkpt>
      <trkpt lat="43.64128" lon="7.1303">
        <ele>35.200000762939</ele>
        <time>2011-03-14T11:57:34.000Z</time>
      </trkpt>
      <trkpt lat="43.64129" lon="7.1301">
        <ele>34.200000762939</ele>
        <time>2011-03-14T11:57:39.000Z</time>
      </trkpt>
      <trkpt lat="43.64138" lon="7.12981">
        <ele>34.200000762939</ele>
        <time>2011-03-14T11:57:47.000Z</time>
      </trkpt>
      <trkpt lat="43.64144" lon="7.12964">
        <ele>36</ele>
        <time>2011-03-14T11:57:52.000Z</time>
      </trkpt>
      <trkpt lat="43.64148" lon="7.12942">
        <ele>37.599998474121</ele>
        <time>2011-03-14T11:57:58.000Z</time>
      </trkpt>
      <trkpt lat="43.64153" lon="7.12922">
        <ele>39</ele>
        <time>2011-03-14T11:58:04.000Z</time>
      </trkpt>
      <trkpt lat="43.64158" lon="7.12906">
        <ele>40.400001525879</ele>
        <time>2011-03-14T11:58:09.000Z</time>
      </trkpt>
      <trkpt lat="43.64163" lon="7.12889">
        <ele>41.400001525879</ele>
        <time>2011-03-14T11:58:14.000Z</time>
      </trkpt>
      <trkpt lat="43.6417" lon="7.12866">
        <ele>43.200000762939</ele>
        <time>2011-03-14T11:58:21.000Z</time>
      </trkpt>
      <trkpt lat="43.64175" lon="7.12851">
        <ele>44.799999237061</ele>
        <time>2011-03-14T11:58:26.000Z</time>
      </trkpt>
      <trkpt lat="43.64178" lon="7.1283">
        <ele>46.200000762939</ele>
        <time>2011-03-14T11:58:32.000Z</time>
      </trkpt>
      <trkpt lat="43.64181" lon="7.12811">
        <ele>47.599998474121</ele>
        <time>2011-03-14T11:58:38.000Z</time>
      </trkpt>
      <trkpt lat="43.64185" lon="7.128">
        <ele>47.599998474121</ele>
        <time>2011-03-14T11:58:42.000Z</time>
      </trkpt>
      <trkpt lat="43.64191" lon="7.12784">
        <ele>48.599998474121</ele>
        <time>2011-03-14T11:58:47.000Z</time>
      </trkpt>
      <trkpt lat="43.64199" lon="7.12766">
        <ele>52</ele>
        <time>2011-03-14T11:58:53.000Z</time>
      </trkpt>
      <trkpt lat="43.64202" lon="7.12748">
        <ele>53</ele>
        <time>2011-03-14T11:58:58.000Z</time>
      </trkpt>
      <trkpt lat="43.64208" lon="7.12732">
        <ele>55.400001525879</ele>
        <time>2011-03-14T11:59:03.000Z</time>
      </trkpt>
      <trkpt lat="43.64213" lon="7.12716">
        <ele>57.799999237061</ele>
        <time>2011-03-14T11:59:08.000Z</time>
      </trkpt>
      <trkpt lat="43.64217" lon="7.12699">
        <ele>60.599998474121</ele>
        <time>2011-03-14T11:59:13.000Z</time>
      </trkpt>
      <trkpt lat="43.6422" lon="7.12689">
        <ele>61.599998474121</ele>
        <time>2011-03-14T11:59:16.000Z</time>
      </trkpt>
      <trkpt lat="43.64221" lon="7.12683">
        <ele>63.400001525879</ele>
        <time>2011-03-14T11:59:18.000Z</time>
      </trkpt>
      <trkpt lat="43.64211" lon="7.12666">
        <ele>64.400001525879</ele>
        <time>2011-03-14T11:59:24.000Z</time>
      </trkpt>
      <trkpt lat="43.64198" lon="7.12647">
        <ele>64.400001525879</ele>
        <time>2011-03-14T11:59:31.000Z</time>
      </trkpt>
      <trkpt lat="43.64191" lon="7.12625">
        <ele>65.400001525879</ele>
        <time>2011-03-14T11:59:37.000Z</time>
      </trkpt>
      <trkpt lat="43.64193" lon="7.12602">
        <ele>65.400001525879</ele>
        <time>2011-03-14T11:59:43.000Z</time>
      </trkpt>
      <trkpt lat="43.64199" lon="7.12579">
        <ele>63.400001525879</ele>
        <time>2011-03-14T11:59:49.000Z</time>
      </trkpt>
      <trkpt lat="43.64201" lon="7.12573">
        <ele>63.400001525879</ele>
        <time>2011-03-14T11:59:51.000Z</time>
      </trkpt>
      <trkpt lat="43.64217" lon="7.1256">
        <ele>63</ele>
        <time>2011-03-14T11:59:57.000Z</time>
      </trkpt>
      <trkpt lat="43.64234" lon="7.1254">
        <ele>65</ele>
        <time>2011-03-14T12:00:03.000Z</time>
      </trkpt>
      <trkpt lat="43.64245" lon="7.12529">
        <ele>66.400001525879</ele>
        <time>2011-03-14T12:00:07.000Z</time>
      </trkpt>
      <trkpt lat="43.64259" lon="7.12512">
        <ele>66.800003051758</ele>
        <time>2011-03-14T12:00:13.000Z</time>
      </trkpt>
      <trkpt lat="43.64272" lon="7.12498">
        <ele>66.800003051758</ele>
        <time>2011-03-14T12:00:18.000Z</time>
      </trkpt>
      <trkpt lat="43.64293" lon="7.12484">
        <ele>65</ele>
        <time>2011-03-14T12:00:25.000Z</time>
      </trkpt>
      <trkpt lat="43.64309" lon="7.12479">
        <ele>64.400001525879</ele>
        <time>2011-03-14T12:00:30.000Z</time>
      </trkpt>
      <trkpt lat="43.64325" lon="7.12475">
        <ele>66.400001525879</ele>
        <time>2011-03-14T12:00:35.000Z</time>
      </trkpt>
      <trkpt lat="43.64341" lon="7.12472">
        <ele>70.199996948242</ele>
        <time>2011-03-14T12:00:41.000Z</time>
      </trkpt>
      <trkpt lat="43.64354" lon="7.1247">
        <ele>74.599998474121</ele>
        <time>2011-03-14T12:00:46.000Z</time>
      </trkpt>
      <trkpt lat="43.64366" lon="7.12471">
        <ele>76.400001525879</ele>
        <time>2011-03-14T12:00:49.000Z</time>
      </trkpt>
    </trkseg>
  </trk>
</gpx>